Flight Track Log - Related Links

Times and Time Zones

All times are in EDT time to prevent confusion due to time zone crossing. See the AFR6725 flight status page for this flight to view local times or setup timezone preferences in your user account.

Time Position Orientation Groundspeed Altitude Reporting Facility
EDT Latitude Longitude Course Direction KTS MPH feet Rate Location/Type
Sat 09:10:49 AM 29.9529 -95.3371 152° Southeast 173 199 700  Level FlightAware ADS-B
Sat 09:10:52 AM 29.9500 -95.3362 165° South 177 204 800 1,714 Climbing FlightAware ADS-B
Sat 09:10:56 AM 29.9471 -95.3358 173° South 184 212 900 667 Climbing FlightAware ADS-B
Sat 09:11:01 AM 29.9422 -95.3366 188° South 191 220 900 667 Level FlightAware ADS-B
Sat 09:11:05 AM 29.9390 -95.3378 198° South 193 222 1,000 1,200 Climbing FlightAware ADS-B
Sat 09:11:11 AM 29.9344 -95.3414 214° Southwest 197 227 1,100 1,333 Climbing FlightAware ADS-B
Sat 09:11:14 AM 29.9325 -95.3438 228° Southwest 198 228 1,200 1,714 Climbing FlightAware ADS-B
Sat 09:11:18 AM 29.9305 -95.3475 238° Southwest 199 229 1,300 2,250 Climbing FlightAware ADS-B
Sat 09:11:22 AM 29.9291 -95.3514 248° West 199 229 1,500 1,800 Climbing FlightAware ADS-B
Sat 09:11:28 AM 29.9282 -95.3572 260° West 200 230 1,600 1,000 Climbing FlightAware ADS-B
Sat 09:11:34 AM 29.9285 -95.3633 273° West 197 227 1,700 1,333 Climbing FlightAware ADS-B
Sat 09:11:37 AM 29.9292 -95.3666 284° West 198 228 1,800 1,000 Climbing FlightAware ADS-B
Sat 09:11:40 AM 29.9304 -95.3699 293° West 200 230 1,800 667 Level FlightAware ADS-B
Sat 09:11:46 AM 29.9333 -95.3751 303° West 203 234 1,900 600 Climbing FlightAware ADS-B
Sat 09:11:50 AM 29.9357 -95.3781 313° West 203 234 1,900  Level FlightAware ADS-B
Sat 09:11:57 AM 29.9415 -95.3823 328° Northwest 207 238 1,900 545 Level FlightAware ADS-B
Sat 09:12:01 AM 29.9450 -95.3837 341° North 210 242 2,000 1,500 Climbing FlightAware ADS-B
Sat 09:12:05 AM 29.9489 -95.3845 350° North 210 242 2,100 1,333 Climbing FlightAware ADS-B
Sat 09:12:10 AM 29.9537 -95.3846 359° North 211 243 2,200 1,059 Climbing FlightAware ADS-B
Sat 09:12:22 AM 29.9652 -95.3842 North 217 250 2,400 1,091 Climbing FlightAware ADS-B
Sat 09:12:32 AM 29.9759 -95.3836 North 228 262 2,600 692 Climbing FlightAware ADS-B
Sat 09:12:48 AM 29.9938 -95.3828 North 246 283 2,700 692 Climbing FlightAware ADS-B
Sat 09:12:58 AM 30.0047 -95.3820 North 256 295 2,900 857 Climbing FlightAware ADS-B
Sat 09:13:02 AM 30.0094 -95.3811 North 260 299 2,900 750 Level FlightAware ADS-B
Sat 09:13:06 AM 30.0148 -95.3794 15° North 265 305 3,000 750 Climbing FlightAware ADS-B
Sat 09:13:10 AM 30.0194 -95.3772 22° Northeast 269 310 3,000  Level FlightAware ADS-B
Sat 09:13:14 AM 30.0237 -95.3743 30° Northeast 276 318 3,000 1,091 Level FlightAware ADS-B
Sat 09:13:21 AM 30.0313 -95.3685 33° Northeast 282 325 3,200 1,800 Climbing FlightAware ADS-B
Sat 09:13:24 AM 30.0347 -95.3655 37° Northeast 282 325 3,300 2,800 Climbing FlightAware ADS-B
Sat 09:13:36 AM 30.0468 -95.3547 38° Northeast 280 322 3,900 2,786 Climbing FlightAware ADS-B
Sat 09:13:52 AM 30.0630 -95.3405 37° Northeast 279 321 4,600 2,545 Climbing FlightAware ADS-B
Sat 09:14:09 AM 30.0812 -95.3243 38° Northeast 286 329 5,300 2,182 Climbing FlightAware ADS-B
Sat 09:14:25 AM 30.0979 -95.3090 38° Northeast 293 337 5,800 2,276 Climbing FlightAware ADS-B
Sat 09:14:38 AM 30.1112 -95.2969 38° Northeast 292 336 6,400 2,571 Climbing FlightAware ADS-B
Sat 09:14:53 AM 30.1271 -95.2823 38° Northeast 295 339 7,000 2,057 Climbing FlightAware ADS-B
Sat 09:15:13 AM 30.1491 -95.2624 38° Northeast 306 352 7,600 1,886 Climbing FlightAware ADS-B
Sat 09:15:28 AM 30.1660 -95.2469 38° Northeast 310 357 8,100 1,935 Climbing FlightAware ADS-B
Sat 09:15:44 AM 30.1840 -95.2305 38° Northeast 315 362 8,600 1,935 Climbing FlightAware ADS-B
Sat 09:15:59 AM 30.2017 -95.2143 38° Northeast 318 366 9,100 1,742 Climbing FlightAware ADS-B
Sat 09:16:15 AM 30.2211 -95.1966 38° Northeast 327 376 9,500 1,636 Climbing FlightAware ADS-B
Sat 09:16:32 AM 30.2405 -95.1785 39° Northeast 334 384 10,000 1,149 Climbing FlightAware ADS-B
Sat 09:17:02 AM 30.2788 -95.1437 38° Northeast 363 418 10,400 1,000 Climbing FlightAware ADS-B
Sat 09:17:32 AM 30.3200 -95.1062 38° Northeast 388 447 11,000 1,400 Climbing FlightAware ADS-B
Sat 09:18:02 AM 30.3641 -95.0657 38° Northeast 406 467 11,800 1,770 Climbing FlightAware ADS-B
Sat 09:18:33 AM 30.4092 -95.0239 39° Northeast 419 482 12,800 2,164 Climbing FlightAware ADS-B
Sat 09:19:03 AM 30.4565 -94.9804 38° Northeast 427 491 14,000 2,459 Climbing FlightAware ADS-B
Sat 09:19:34 AM 30.5052 -94.9358 38° Northeast 437 503 15,300 2,419 Climbing FlightAware ADS-B
Sat 09:20:05 AM 30.5554 -94.8913 37° Northeast 447 514 16,500 2,280 Climbing FlightAware ADS-B
Sat 09:20:24 AM 30.5872 -94.8655 35° Northeast 454 522 17,200 2,204 Climbing FlightAware ADS-B
Sat 09:20:54 AM 30.6405 -94.8243 34° Northeast 463 533 18,300 2,200 Climbing FlightAware ADS-B
Sat 09:21:24 AM 30.6954 -94.7823 33° Northeast 474 545 19,400 2,000 Climbing FlightAware ADS-B
Sat 09:21:54 AM 30.7511 -94.7396 33° Northeast 486 559 20,300 1,869 Climbing FlightAware ADS-B
Sat 09:22:25 AM 30.8091 -94.6950 33° Northeast 497 572 21,300 1,869 Climbing FlightAware ADS-B
Sat 09:22:55 AM 30.8672 -94.6501 34° Northeast 506 582 22,200 1,700 Climbing FlightAware ADS-B
Sat 09:23:25 AM 30.9266 -94.6042 34° Northeast 516 594 23,000 1,742 Climbing FlightAware ADS-B
Sat 09:23:57 AM 30.9904 -94.5547 34° Northeast 525 604 24,000 1,781 Climbing FlightAware ADS-B
Sat 09:24:29 AM 31.0571 -94.5028 34° Northeast 536 617 24,900 1,688 Climbing FlightAware ADS-B
Sat 09:25:01 AM 31.1228 -94.4517 34° Northeast 544 626 25,800 1,619 Climbing FlightAware ADS-B
Sat 09:25:32 AM 31.1879 -94.4012 34° Northeast 551 634 26,600 1,594 Climbing FlightAware ADS-B
Sat 09:26:05 AM 31.2581 -94.3464 34° Northeast 559 643 27,500 1,440 Climbing FlightAware ADS-B
Sat 09:26:47 AM 31.3495 -94.2750 34° Northeast 568 654 28,400 1,429 Climbing FlightAware ADS-B
Sat 09:27:08 AM 31.3952 -94.2384 34° Northeast 571 657 29,000 1,674 Climbing FlightAware ADS-B
Sat 09:27:30 AM 31.4406 -94.1960 39° Northeast 575 662 29,600 1,636 Climbing FlightAware ADS-B
Sat 09:27:52 AM 31.4845 -94.1469 44° Northeast 577 664 30,200 1,472 Climbing FlightAware ADS-B
Sat 09:28:23 AM 31.5370 -94.0746 50° Northeast 581 669 30,900 1,273 Climbing FlightAware ADS-B
Sat 09:28:58 AM 31.5961 -93.9894 51° Northeast 585 673 31,600 1,254 Climbing FlightAware ADS-B
Sat 09:29:30 AM 31.6511 -93.9094 51° Northeast 589 678 32,300 1,161 Climbing FlightAware ADS-B
Sat 09:30:00 AM 31.7031 -93.8332 51° Northeast 591 680 32,800 467 Climbing FlightAware ADS-B
Sat 09:31:00 AM 31.8048 -93.6836 51° Northeast 599 689 33,000 161 Climbing FlightAware ADS-B
Sat 09:31:52 AM 31.8939 -93.5520 51° Northeast 593 682 33,100 76 Climbing FlightAware ADS-B
Sat 09:32:19 AM 31.9308 -93.5003 51° Northeast 593 682 33,100 -133 Level Houston Center
Sat 09:32:37 AM 31.9572 -93.4639 49° Northeast 592 681 33,000  Descending Fort Worth Center
Sat 09:33:37 AM 32.0589 -93.3125 52° Northeast 592 681 33,100 50 Climbing Fort Worth Center
Sat 09:34:37 AM 32.1625 -93.1606 51° Northeast 587 676 33,100 -50 Level Fort Worth Center
Sat 09:35:37 AM 32.2636 -93.0086 52° Northeast 587 676 33,000 -50 Descending Fort Worth Center
Sat 09:36:37 AM 32.3647 -92.8586 51° Northeast 587 676 33,000  Level Fort Worth Center
Sat 09:37:37 AM 32.4656 -92.7008 53° Northeast 587 676 33,000  Level Fort Worth Center
Sat 09:38:37 AM 32.5661 -92.5478 52° Northeast 587 676 33,000  Level Fort Worth Center
Sat 09:39:37 AM 32.6628 -92.4044 51° Northeast 574 661 33,000  Level Fort Worth Center
Sat 09:42:44 AM 32.9647 -91.9319 53° Northeast 574 661 33,000 24 Level Memphis Center
Sat 09:43:44 AM 33.0647 -91.7800 52° Northeast 569 655 33,100  Climbing Memphis Center
Sat 09:44:44 AM 33.1625 -91.6278 52° Northeast 574 661 33,000 -50 Descending Memphis Center
Sat 09:45:44 AM 33.2597 -91.4778 52° Northeast 574 661 33,000  Level Memphis Center
Sat 09:46:44 AM 33.3572 -91.3222 53° Northeast 579 666 33,000  Level Memphis Center
Sat 09:47:44 AM 33.4564 -91.1689 52° Northeast 579 666 33,000 50 Level Memphis Center
Sat 09:48:44 AM 33.5553 -91.0153 52° Northeast 579 666 33,100  Climbing Memphis Center
Sat 09:49:44 AM 33.6519 -90.8614 53° Northeast 579 666 33,000 -50 Descending Memphis Center
Sat 09:50:44 AM 33.7528 -90.7044 52° Northeast 579 666 33,000  Level Memphis Center
Sat 09:51:44 AM 33.8594 -90.5322 53° Northeast 579 666 33,000  Level Memphis Center
Sat 09:52:44 AM 33.9578 -90.3722 53° Northeast 585 673 33,000  Level Memphis Center
Sat 09:53:44 AM 34.0558 -90.2167 53° Northeast 585 673 33,000  Level Memphis Center
Sat 09:54:44 AM 34.1536 -90.0583 53° Northeast 590 679 33,000  Level Memphis Center
Sat 09:55:44 AM 34.2511 -89.8947 54° Northeast 590 679 33,000  Level Memphis Center
Sat 09:56:44 AM 34.3486 -89.7333 54° Northeast 590 679 33,000  Level Memphis Center
Sat 09:57:44 AM 34.4478 -89.5714 53° Northeast 595 685 33,000  Level Memphis Center
Sat 09:58:44 AM 34.5467 -89.4092 53° Northeast 595 685 33,000  Level Memphis Center
Sat 09:59:44 AM 34.6456 -89.2439 54° Northeast 595 685 33,000  Level Memphis Center
Sat 10:00:45 AM 34.7419 -89.0833 54° Northeast 595 685 33,000  Level Memphis Center
Sat 10:01:44 AM 34.8425 -88.9200 53° Northeast 590 679 33,000  Level Memphis Center
Sat 10:07:42 AM 35.4250 -87.9340 53° Northeast 604 695 33,000  Level FlightAware ADS-B
Sat 10:08:17 AM 35.4800 -87.8390 55° Northeast 605 696 33,000  Level FlightAware ADS-B
Sat 10:09:07 AM 35.5630 -87.6960 54° Northeast 606 697 33,000  Level FlightAware ADS-B
Sat 10:09:47 AM 35.6280 -87.5830 55° Northeast 606 697 33,000  Level FlightAware ADS-B
Sat 10:10:27 AM 35.6920 -87.4710 55° Northeast 606 697 33,000  Level FlightAware ADS-B
Sat 10:11:12 AM 35.7650 -87.3420 55° Northeast 606 697 33,000  Level FlightAware ADS-B
Sat 10:11:52 AM 35.8300 -87.2290 55° Northeast 605 696 33,000  Level FlightAware ADS-B
Sat 10:12:32 AM 35.8940 -87.1170 55° Northeast 603 694 33,000  Level FlightAware ADS-B
Sat 10:13:17 AM 35.9640 -86.9930 55° Northeast 602 693 33,000  Level FlightAware ADS-B
Sat 10:13:47 AM 36.0130 -86.9060 55° Northeast 603 694 33,000  Level FlightAware ADS-B
Sat 10:14:14 AM 36.0590 -86.8238 55° Northeast 604 695 33,000  Level FlightAware ADS-B
Sat 10:14:38 AM 36.0964 -86.7571 55° Northeast 605 696 33,000  Level FlightAware ADS-B
Sat 10:15:10 AM 36.1464 -86.6623 57° Northeast 606 697 33,000  Level FlightAware ADS-B
Sat 10:15:42 AM 36.1930 -86.5730 57° Northeast 605 696 33,000  Level FlightAware ADS-B
Sat 10:15:48 AM 36.2032 -86.5520 59° Northeast 605 696 33,000 133 Level FlightAware ADS-B
Sat 10:16:27 AM 36.2570 -86.4430 59° Northeast 606 697 33,100  Climbing FlightAware ADS-B
Sat 10:16:57 AM 36.3033 -86.3482 59° Northeast 607 699 33,000 -91 Descending FlightAware ADS-B
Sat 10:17:33 AM 36.3552 -86.2401 59° Northeast 605 696 33,000  Level FlightAware ADS-B
Sat 10:18:26 AM 36.4298 -86.0820 60° Northeast 602 693 33,000  Level FlightAware ADS-B
Sat 10:18:57 AM 36.4731 -85.9902 60° Northeast 600 690 33,000  Level FlightAware ADS-B
Sat 10:19:27 AM 36.5155 -85.9000 60° Northeast 599 689 33,000  Level FlightAware ADS-B
Sat 10:19:57 AM 36.5530 -85.8200 60° Northeast 596 686 33,000  Level FlightAware ADS-B
Sat 10:19:59 AM 36.5595 -85.8064 59° Northeast 597 687 33,000  Level FlightAware ADS-B
Sat 10:20:31 AM 36.6039 -85.7119 60° Northeast 596 686 33,000 94 Level FlightAware ADS-B
Sat 10:21:03 AM 36.6489 -85.6160 60° Northeast 595 685 33,100  Climbing FlightAware ADS-B
Sat 10:21:37 AM 36.6920 -85.5230 60° Northeast 594 684 33,000  Descending FlightAware ADS-B
Sat 10:21:48 AM 36.7103 -85.4851 59° Northeast 595 685 33,100  Climbing FlightAware ADS-B
Sat 10:22:19 AM 36.7531 -85.3935 60° Northeast 593 682 33,000  Descending FlightAware ADS-B
Sat 10:22:49 AM 36.7951 -85.3041 60° Northeast 588 677 33,100  Climbing FlightAware ADS-B
Sat 10:23:20 AM 36.8375 -85.2149 59° Northeast 585 673 33,000 -98 Descending FlightAware ADS-B
Sat 10:23:50 AM 36.8775 -85.1267 60° Northeast 585 673 33,000  Level FlightAware ADS-B
Sat 10:24:20 AM 36.9175 -85.0382 60° Northeast 583 671 33,000 400 Level FlightAware ADS-B
Sat 10:24:50 AM 36.9577 -84.9500 60° Northeast 587 676 33,400 900 Climbing FlightAware ADS-B
Sat 10:25:20 AM 36.9981 -84.8615 60° Northeast 589 678 33,900 885 Climbing FlightAware ADS-B
Sat 10:25:51 AM 37.0393 -84.7716 60° Northeast 594 684 34,300 984 Climbing FlightAware ADS-B
Sat 10:26:21 AM 37.0801 -84.6824 60° Northeast 594 684 34,900 700 Climbing FlightAware ADS-B
Sat 10:26:51 AM 37.1218 -84.5909 60° Northeast 596 686 35,000 98 Climbing FlightAware ADS-B
Sat 10:27:22 AM 37.1629 -84.5007 60° Northeast 596 686 35,000  Level FlightAware ADS-B
Sat 10:27:52 AM 37.2048 -84.4083 60° Northeast 594 684 35,000  Level FlightAware ADS-B
Sat 10:28:23 AM 37.2454 -84.3183 60° Northeast 592 681 35,000  Level FlightAware ADS-B
Sat 10:28:54 AM 37.2877 -84.2245 60° Northeast 592 681 35,000  Level FlightAware ADS-B
Sat 10:29:24 AM 37.3285 -84.1338 60° Northeast 591 680 35,000  Level FlightAware ADS-B
Sat 10:29:55 AM 37.3702 -84.0406 61° Northeast 591 680 35,000  Level FlightAware ADS-B
Sat 10:30:30 AM 37.4167 -83.9364 61° Northeast 589 678 35,000  Level FlightAware ADS-B
Sat 10:31:01 AM 37.4572 -83.8454 61° Northeast 589 678 35,000  Level FlightAware ADS-B
Sat 10:31:35 AM 37.5017 -83.7450 61° Northeast 587 676 35,000  Level FlightAware ADS-B
Sat 10:32:12 AM 37.5430 -83.6570 59° Northeast 587 676 35,000  Level FlightAware ADS-B
Sat 10:33:02 AM 37.6000 -83.5310 60° Northeast 587 676 35,000  Level FlightAware ADS-B
Sat 10:33:44 AM 37.6713 -83.3595 62° Northeast 35,000  Level FlightAware ADS-B
Sat 10:33:58 AM 37.6886 -83.3198 61° Northeast 580 667 35,000  Level FlightAware ADS-B
Sat 10:37:22 AM 37.9490 -82.7200 61° Northeast 576 663 35,000  Level FlightAware ADS-B
Sat 10:38:07 AM 38.0040 -82.5910 62° Northeast 575 662 35,000  Level FlightAware ADS-B
Sat 10:38:17 AM 38.0205 -82.5514 62° Northeast 576 663 35,000  Level FlightAware ADS-B
Sat 10:38:48 AM 38.0594 -82.4602 62° Northeast 576 663 35,000  Level FlightAware ADS-B
Sat 10:39:20 AM 38.0990 -82.3669 62° Northeast 575 662 35,000  Level FlightAware ADS-B
Sat 10:39:50 AM 38.1373 -82.2765 62° Northeast 574 661 35,000  Level FlightAware ADS-B
Sat 10:40:22 AM 38.1790 -82.1910 58° Northeast 571 657 35,000  Level FlightAware ADS-B
Sat 10:40:37 AM 38.2052 -82.1436 55° Northeast 571 657 35,000  Level FlightAware ADS-B
Sat 10:40:52 AM 38.2281 -82.1060 52° Northeast 569 655 35,000  Level FlightAware ADS-B
Sat 10:41:27 AM 38.2840 -82.0240 49° Northeast 567 652 35,000  Level FlightAware ADS-B
Sat 10:42:07 AM 38.3530 -81.9230 49° Northeast 564 649 35,000  Level FlightAware ADS-B
Sat 10:42:42 AM 38.4130 -81.8360 49° Northeast 563 648 35,000  Level FlightAware ADS-B
Sat 10:43:12 AM 38.4640 -81.7610 49° Northeast 562 647 35,000  Level FlightAware ADS-B
Sat 10:43:52 AM 38.5320 -81.6640 48° Northeast 561 646 35,000  Level FlightAware ADS-B
Sat 10:44:22 AM 38.5850 -81.5870 49° Northeast 560 644 35,000  Level FlightAware ADS-B
Sat 10:44:52 AM 38.6360 -81.5130 49° Northeast 559 643 35,000  Level FlightAware ADS-B
Sat 10:45:32 AM 38.7030 -81.4140 49° Northeast 557 641 35,000  Level FlightAware ADS-B
Sat 10:46:12 AM 38.7730 -81.3120 49° Northeast 555 639 35,000  Level FlightAware ADS-B
Sat 10:46:57 AM 38.8500 -81.1990 49° Northeast 553 636 35,000  Level FlightAware ADS-B
Sat 10:47:32 AM 38.9070 -81.1150 49° Northeast 551 634 35,000  Level FlightAware ADS-B
Sat 10:48:07 AM 38.9610 -81.0340 49° Northeast 548 631 35,000  Level FlightAware ADS-B
Sat 10:48:47 AM 39.0290 -80.9330 49° Northeast 546 628 35,000  Level FlightAware ADS-B
Sat 10:49:22 AM 39.0820 -80.8540 49° Northeast 546 628 35,000  Level FlightAware ADS-B
Sat 10:50:12 AM 39.1710 -80.7210 49° Northeast 538 619 35,000  Level FlightAware ADS-B
Sat 10:50:57 AM 39.2370 -80.6240 49° Northeast 538 619 35,000  Level FlightAware ADS-B
Sat 10:51:37 AM 39.3000 -80.5270 50° Northeast 536 617 35,000  Level FlightAware ADS-B
Sat 10:52:07 AM 39.3510 -80.4510 49° Northeast 536 617 35,000  Level FlightAware ADS-B
Sat 10:52:42 AM 39.4070 -80.3670 49° Northeast 537 618 35,000  Level FlightAware ADS-B
Sat 10:53:12 AM 39.4580 -80.2900 49° Northeast 539 620 35,000  Level FlightAware ADS-B
Sat 10:53:52 AM 39.5160 -80.2000 50° Northeast 539 620 35,000  Level FlightAware ADS-B
Sat 10:54:22 AM 39.5700 -80.1190 49° Northeast 539 620 35,000  Level FlightAware ADS-B
Sat 10:55:12 AM 39.6510 -79.9950 50° Northeast 542 624 35,000  Level FlightAware ADS-B
Sat 10:56:02 AM 39.7250 -79.8820 50° Northeast 545 627 35,000  Level FlightAware ADS-B
Sat 10:56:47 AM 39.8020 -79.7640 50° Northeast 547 629 35,000  Level FlightAware ADS-B
Sat 10:57:22 AM 39.8590 -79.6740 50° Northeast 547 629 35,000  Level FlightAware ADS-B
Sat 10:57:57 AM 39.9130 -79.5910 50° Northeast 548 631 35,000  Level FlightAware ADS-B
Sat 10:58:42 AM 39.9930 -79.4660 50° Northeast 548 631 35,000 67 Level FlightAware ADS-B
Sat 10:59:27 AM 40.0660 -79.3520 50° Northeast 548 631 35,100  Climbing FlightAware ADS-B
Sat 11:00:07 AM 40.1280 -79.2560 50° Northeast 548 631 35,000 -71 Descending FlightAware ADS-B
Sat 11:00:52 AM 40.2040 -79.1360 50° Northeast 549 632 35,000  Level FlightAware ADS-B
Sat 11:01:32 AM 40.2670 -79.0360 50° Northeast 548 631 35,000  Level FlightAware ADS-B
Sat 11:02:12 AM 40.3320 -78.9330 50° Northeast 547 629 35,000 71 Level FlightAware ADS-B
Sat 11:02:57 AM 40.4030 -78.8210 50° Northeast 547 629 35,100  Climbing FlightAware ADS-B
Sat 11:03:32 AM 40.4560 -78.7360 51° Northeast 546 628 35,000 -29 Descending FlightAware ADS-B
Sat 11:06:22 AM 40.7310 -78.2950 50° Northeast 541 623 35,000  Level FlightAware ADS-B
Sat 11:07:04 AM 40.7958 -78.1839 50° Northeast 547 629 35,000 58 Level New York Center
Sat 11:08:06 AM 40.8817 -78.0447 51° Northeast 547 629 35,100  Climbing New York Center
Sat 11:09:05 AM 40.9978 -77.9197 39° Northeast 541 623 35,000 -51 Descending New York Center
Sat 11:10:04 AM 41.1194 -77.8003 36° Northeast 535 616 35,000  Level New York Center
Sat 11:11:06 AM 41.2433 -77.6806 36° Northeast 535 616 35,000  Level New York Center
Sat 11:12:58 AM 41.4833 -77.4425 37° Northeast 543 625 35,000  Level Cleveland Center
Sat 11:13:58 AM 41.6050 -77.3200 37° Northeast 543 625 35,000  Level Cleveland Center
Sat 11:14:58 AM 41.7289 -77.1997 36° Northeast 543 625 35,000  Level Cleveland Center
Sat 11:17:15 AM 41.9967 -76.9300 37° Northeast 544 626 35,000  Level Boston Center
Sat 11:18:15 AM 42.1161 -76.8097 37° Northeast 544 626 35,000  Level Boston Center
Sat 11:19:15 AM 42.2397 -76.6836 37° Northeast 544 626 35,000  Level Boston Center
Sat 11:20:15 AM 42.3589 -76.5625 37° Northeast 543 625 35,000  Level Boston Center
Sat 11:21:15 AM 42.4758 -76.4406 38° Northeast 538 619 35,000  Level Boston Center
Sat 11:22:15 AM 42.5928 -76.3183 38° Northeast 533 613 35,000  Level Boston Center
Sat 11:23:15 AM 42.7117 -76.1931 38° Northeast 533 613 35,000  Level Boston Center
Sat 11:24:15 AM 42.8281 -76.0728 37° Northeast 533 613 35,000  Level Boston Center
Sat 11:25:15 AM 42.9467 -75.9492 37° Northeast 533 613 35,000  Level Boston Center
Sat 11:26:15 AM 43.0650 -75.8253 37° Northeast 528 608 35,000  Level Boston Center
Sat 11:27:15 AM 43.1856 -75.6981 38° Northeast 533 613 35,000  Level Boston Center
Sat 11:28:15 AM 43.3036 -75.5700 38° Northeast 533 613 35,000  Level Boston Center
Sat 11:29:15 AM 43.4239 -75.4447 37° Northeast 539 620 35,000  Level Boston Center
Sat 11:34:47 AM 44.0950 -74.7030 37° Northeast 544 626 35,000  Level FlightAware ADS-B
Sat 11:35:27 AM 44.1740 -74.6160 38° Northeast 542 624 35,000  Level FlightAware ADS-B
Sat 11:36:12 AM 44.2590 -74.5210 39° Northeast 543 625 35,000  Level FlightAware ADS-B
Sat 11:36:52 AM 44.3380 -74.4320 39° Northeast 545 627 35,000  Level FlightAware ADS-B
Sat 11:37:32 AM 44.4150 -74.3460 39° Northeast 545 627 35,000  Level FlightAware ADS-B
Sat 11:38:17 AM 44.5060 -74.2430 39° Northeast 546 628 35,000  Level FlightAware ADS-B
Sat 11:38:57 AM 44.5860 -74.1530 39° Northeast 545 627 35,000  Level FlightAware ADS-B
Sat 11:39:42 AM 44.6710 -74.0560 39° Northeast 543 625 35,000  Level FlightAware ADS-B
Sat 11:40:22 AM 44.7510 -73.9650 39° Northeast 545 627 35,000  Level FlightAware ADS-B
Sat 11:40:52 AM 44.8080 -73.9000 39° Northeast 545 627 35,000  Level FlightAware ADS-B
Sat 11:41:32 AM 44.8860 -73.8100 39° Northeast 546 628 35,000  Level FlightAware ADS-B
Sat 11:42:32 AM 45.0060 -73.6720 39° Northeast 549 632 35,000  Level FlightAware ADS-B
Sat 11:43:17 AM 45.0960 -73.5680 39° Northeast 550 633 35,000  Level FlightAware ADS-B
Sat 11:43:57 AM 45.1710 -73.4810 39° Northeast 551 634 35,000  Level FlightAware ADS-B
Sat 11:44:42 AM 45.2600 -73.3770 39° Northeast 551 634 35,000  Level FlightAware ADS-B
Sat 11:45:22 AM 45.3390 -73.2840 40° Northeast 551 634 35,000  Level FlightAware ADS-B
Sat 11:46:07 AM 45.4280 -73.1800 39° Northeast 549 632 35,000  Level FlightAware ADS-B
Sat 11:46:47 AM 45.5070 -73.0870 40° Northeast 548 631 35,000  Level FlightAware ADS-B
Sat 11:47:32 AM 45.5910 -72.9880 39° Northeast 548 631 35,000  Level FlightAware ADS-B
Sat 11:48:12 AM 45.6710 -72.8920 40° Northeast 549 632 35,000  Level FlightAware ADS-B
Sat 11:48:52 AM 45.7490 -72.7980 40° Northeast 549 632 35,000  Level FlightAware ADS-B
Sat 11:49:37 AM 45.8380 -72.6910 40° Northeast 551 634 35,000  Level FlightAware ADS-B
Sat 11:50:17 AM 45.9160 -72.5970 40° Northeast 552 635 35,000  Level FlightAware ADS-B
Sat 11:51:02 AM 46.0020 -72.4940 40° Northeast 551 634 35,000  Level FlightAware ADS-B
Sat 11:51:42 AM 46.0800 -72.3990 40° Northeast 551 634 35,000  Level FlightAware ADS-B
Sat 11:52:22 AM 46.1570 -72.3060 40° Northeast 551 634 35,000  Level FlightAware ADS-B
Sat 11:53:07 AM 46.2450 -72.1970 41° Northeast 551 634 35,000  Level FlightAware ADS-B
Sat 11:53:47 AM 46.3250 -72.1000 40° Northeast 551 634 35,000  Level FlightAware ADS-B
Sat 11:54:27 AM 46.4030 -72.0030 41° Northeast 553 636 35,000  Level FlightAware ADS-B
Sat 11:55:12 AM 46.4850 -71.9010 41° Northeast 555 639 35,000  Level FlightAware ADS-B
Sat 11:55:57 AM 46.5730 -71.7920 40° Northeast 555 639 35,000  Level FlightAware ADS-B
Sat 11:56:32 AM 46.6400 -71.7080 41° Northeast 555 639 35,000  Level FlightAware ADS-B
Sat 11:57:02 AM 46.6990 -71.6340 41° Northeast 556 640 35,000  Level FlightAware ADS-B
Sat 11:57:42 AM 46.7730 -71.5350 42° Northeast 555 639 35,000  Level FlightAware ADS-B
Sat 11:58:27 AM 46.8560 -71.4170 44° Northeast 554 638 35,000  Level FlightAware ADS-B
Sat 11:58:57 AM 46.9110 -71.3400 44° Northeast 553 636 35,000  Level FlightAware ADS-B
Sat 11:59:37 AM 46.9850 -71.2360 44° Northeast 553 636 35,000  Level FlightAware ADS-B
Sat 12:00:17 PM 47.0580 -71.1330 44° Northeast 552 635 35,000  Level FlightAware ADS-B
Sat 12:01:02 PM 47.1400 -71.0170 44° Northeast 550 633 35,000  Level FlightAware ADS-B
Sat 12:01:42 PM 47.2140 -70.9130 44° Northeast 550 633 35,000  Level FlightAware ADS-B
Sat 12:02:27 PM 47.2960 -70.7970 44° Northeast 550 633 35,000  Level FlightAware ADS-B
Sat 12:03:07 PM 47.3680 -70.6930 44° Northeast 548 631 35,000  Level FlightAware ADS-B
Sat 12:03:47 PM 47.4400 -70.5910 44° Northeast 543 625 35,000  Level FlightAware ADS-B
Sat 12:04:32 PM 47.5200 -70.4740 45° Northeast 541 623 35,000  Level FlightAware ADS-B
Sat 12:05:12 PM 47.5900 -70.3720 44° Northeast 539 620 35,000  Level FlightAware ADS-B
Sat 12:05:57 PM 47.6650 -70.2460 49° Northeast 539 620 35,000  Level FlightAware ADS-B
Sat 12:06:37 PM 47.7260 -70.1290 52° Northeast 538 619 35,000  Level FlightAware ADS-B
Sat 12:07:22 PM 47.7930 -69.9970 53° Northeast 537 618 35,000  Level FlightAware ADS-B
Sat 12:08:02 PM 47.8530 -69.8800 53° Northeast 536 617 35,000  Level FlightAware ADS-B
Sat 12:08:37 PM 47.9070 -69.7750 52° Northeast 534 615 35,000  Level FlightAware ADS-B
Sat 12:09:37 PM 47.9390 -69.7130 52° Northeast 535 616 35,000  Level FlightAware ADS-B
Sat 12:10:57 PM 48.1070 -69.3800 53° Northeast 536 617 35,000  Level FlightAware ADS-B
Sat 12:11:37 PM 48.1200 -69.3550 52° Northeast 536 617 35,000  Level FlightAware ADS-B
Sat 12:12:07 PM 48.1580 -69.2790 53° Northeast 536 617 35,000  Level FlightAware ADS-B
Sat 12:12:37 PM 48.1960 -69.2030 53° Northeast 536 617 35,000  Level FlightAware ADS-B
Sat 12:13:17 PM 48.2460 -69.1020 53° Northeast 536 617 35,000  Level FlightAware ADS-B
Sat 12:13:57 PM 48.2970 -69.0010 53° Northeast 536 617 35,000  Level FlightAware ADS-B
Sat 12:14:47 PM 48.3610 -68.8740 53° Northeast 536 617 35,000  Level FlightAware ADS-B
Sat 12:15:27 PM 48.4110 -68.7730 53° Northeast 536 617 35,000  Level FlightAware ADS-B
Sat 12:16:07 PM 48.4620 -68.6720 53° Northeast 536 617 35,000  Level FlightAware ADS-B
Sat 12:16:47 PM 48.5130 -68.5700 53° Northeast 536 617 35,000  Level FlightAware ADS-B
Sat 12:17:27 PM 48.5630 -68.4680 53° Northeast 536 617 35,000  Level FlightAware ADS-B
Sat 12:18:17 PM 48.6270 -68.3410 53° Northeast 536 617 35,000  Level FlightAware ADS-B
Sat 12:18:57 PM 48.6780 -68.2390 53° Northeast 536 617 35,000  Level FlightAware ADS-B
Sat 12:19:37 PM 48.7280 -68.1370 53° Northeast 536 617 35,000  Level FlightAware ADS-B
Sat 12:20:17 PM 48.7790 -68.0350 53° Northeast 536 617 35,000  Level FlightAware ADS-B
Sat 12:20:57 PM 48.8300 -67.9330 53° Northeast 536 617 35,000  Level FlightAware ADS-B
Sat 12:21:17 PM 48.9000 -67.3333 53° Northeast 540 621 35,000  Level Montreal Center
Sat 12:22:17 PM 48.9667 -67.1500 61° Northeast 540 621 35,000  Level Montreal Center
Sat 12:23:17 PM 49.0500 -66.9500 58° Northeast 540 621 35,000  Level Montreal Center
Sat 12:24:17 PM 49.1167 -66.7333 65° Northeast 540 621 35,000  Level Montreal Center
Sat 12:24:52 PM 49.1667 -66.6500 47° Northeast 540 621 35,000  Level Moncton Center
Sat 12:25:17 PM 49.1833 -66.5667 73° East 540 621 35,000  Level Montreal Center
Sat 12:26:17 PM 49.2667 -66.3333 61° Northeast 540 621 35,000  Level Montreal Center
Sat 12:27:17 PM 49.3333 -66.1333 63° Northeast 540 621 35,000  Level Montreal Center
Sat 12:28:17 PM 49.4167 -65.9333 57° Northeast 540 621 35,000  Level Montreal Center
Sat 12:28:52 PM 49.4667 -65.8333 52° Northeast 540 621 35,000  Level Moncton Center
Sat 12:29:52 PM 49.5333 -65.6667 58° Northeast 540 621 35,000  Level Moncton Center
Sat 12:30:17 PM 49.5667 -65.5167 71° East 540 621 35,000  Level Montreal Center
Sat 12:31:17 PM 49.6333 -65.3167 63° Northeast 540 621 35,000  Level Montreal Center
Sat 12:31:54 PM 49.6833 -65.2333 47° Northeast 540 621 35,000  Level Gander Center
Sat 12:32:54 PM 49.7500 -65.0333 63° Northeast 540 621 35,000  Level Gander Center
Sat 12:33:54 PM 49.8333 -64.8000 61° Northeast 550 633 35,000  Level Gander Center
Sat 12:34:17 PM 49.8500 -64.7167 73° East 540 621 35,000  Level Montreal Center
Sat 12:34:54 PM 49.9000 -64.6000 56° Northeast 550 633 35,000  Level Gander Center
Sat 12:35:54 PM 49.9833 -64.4000 57° Northeast 550 633 35,000  Level Gander Center
Sat 12:36:17 PM 50.0000 -64.2833 77° East 550 633 35,000  Level Montreal Center
Sat 12:37:17 PM 50.0667 -64.0500 66° East 550 633 35,000  Level Montreal Center
Sat 12:37:54 PM 50.1000 -64.0000 44° Northeast 550 633 35,000  Level Gander Center
Sat 12:38:17 PM 50.1333 -63.8500 71° East 550 633 35,000  Level Montreal Center
Sat 12:39:17 PM 50.2167 -63.6500 57° Northeast 550 633 35,000  Level Montreal Center
Sat 12:39:54 PM 50.2500 -63.5500 62° Northeast 550 633 35,000  Level Gander Center
Sat 12:40:54 PM 50.3167 -63.3167 66° East 550 633 35,000  Level Gander Center
Sat 12:41:54 PM 50.3833 -63.1167 62° Northeast 550 633 35,000  Level Gander Center
Sat 12:42:54 PM 50.4667 -62.9167 57° Northeast 550 633 35,000  Level Gander Center
Sat 12:43:54 PM 50.5333 -62.7000 64° Northeast 550 633 35,000  Level Gander Center
Sat 12:44:54 PM 50.6000 -62.4667 66° East 550 633 35,000  Level Gander Center
Sat 12:45:54 PM 50.6667 -62.2500 64° Northeast 550 633 35,000  Level Gander Center
Sat 12:46:54 PM 50.7333 -62.0500 62° Northeast 550 633 35,000  Level Gander Center
Sat 12:47:54 PM 50.8000 -61.8167 66° East 550 633 35,000  Level Gander Center
Sat 12:48:54 PM 50.8667 -61.6000 64° Northeast 550 633 35,000  Level Gander Center
Sat 12:49:54 PM 50.9333 -61.3833 64° Northeast 560 644 35,000  Level Gander Center
Sat 12:50:54 PM 50.9833 -61.1833 68° East 550 633 35,000  Level Gander Center
Sat 12:51:54 PM 51.0667 -60.9333 62° Northeast 550 633 35,000  Level Gander Center
Sat 12:52:54 PM 51.1167 -60.7167 70° East 550 633 35,000  Level Gander Center
Sat 12:53:54 PM 51.1833 -60.5167 62° Northeast 550 633 35,000  Level Gander Center
Sat 12:54:54 PM 51.2500 -60.3000 64° Northeast 550 633 35,000  Level Gander Center
Sat 12:55:54 PM 51.3167 -60.0500 67° East 550 633 35,000  Level Gander Center
Sat 12:56:54 PM 51.3833 -59.8333 64° Northeast 550 633 35,000  Level Gander Center
Sat 12:57:54 PM 51.4500 -59.6000 65° Northeast 550 633 35,000  Level Gander Center
Sat 12:58:54 PM 51.5333 -59.4000 56° Northeast 550 633 35,000  Level Gander Center
Sat 12:59:54 PM 51.5833 -59.1500 72° East 540 621 35,000  Level Gander Center
Sat 01:00:54 PM 51.6500 -58.9667 60° Northeast 550 633 35,000  Level Gander Center
Sat 01:01:54 PM 51.7333 -58.7500 58° Northeast 540 621 35,000  Level Gander Center
Sat 01:02:54 PM 51.8000 -58.5167 65° Northeast 540 621 35,000  Level Gander Center
Sat 01:03:54 PM 51.8667 -58.3000 63° Northeast 550 633 35,000  Level Gander Center
Sat 01:04:54 PM 51.9333 -58.0833 63° Northeast 550 633 35,000  Level Gander Center
Sat 01:05:54 PM 52.0000 -57.8667 63° Northeast 550 633 35,000  Level Gander Center
Sat 01:06:54 PM 52.0667 -57.6333 65° Northeast 540 621 35,000  Level Gander Center
Sat 01:07:54 PM 52.1333 -57.4167 63° Northeast 540 621 35,000  Level Gander Center
Sat 01:08:54 PM 52.2000 -57.1833 65° Northeast 550 633 35,000  Level Gander Center
Sat 01:09:54 PM 52.2667 -56.9667 63° Northeast 540 621 35,000  Level Gander Center
Sat 01:10:28 PM 52.3000 -56.8500 65° Northeast 540 621 35,000  Level Gander Center
Sat 01:10:54 PM 52.3167 -56.7667 72° East 540 621 35,000  Level Gander Center
Sat 01:11:28 PM 52.3667 -56.6167 61° Northeast 550 633 35,000  Level Gander Center
Sat 01:11:54 PM 52.4000 -56.5167 61° Northeast 540 621 35,000  Level Gander Center
Sat 01:12:54 PM 52.4500 -56.3167 68° East 540 621 35,000  Level Gander Center
Sat 01:13:54 PM 52.5333 -56.0500 63° Northeast 550 633 35,000  Level Gander Center
Sat 01:14:28 PM 52.5500 -55.9500 75° East 550 633 35,000  Level Gander Center
Sat 01:14:54 PM 52.5833 -55.8500 61° Northeast 540 621 35,000  Level Gander Center
Sat 01:15:54 PM 52.6667 -55.6000 61° Northeast 550 633 35,000  Level Gander Center
Sat 01:16:28 PM 52.6833 -55.4833 77° East 550 633 35,000  Level Gander Center
Sat 01:17:28 PM 52.7500 -55.2500 65° Northeast 550 633 35,000  Level Gander Center
Sat 01:17:54 PM 52.7667 -55.1667 72° East 550 633 35,000  Level Gander Center
Sat 01:18:54 PM 52.8500 -54.9333 59° Northeast 550 633 35,000  Level Gander Center
Sat 01:19:54 PM 52.9000 -54.7333 67° East 540 621 35,000  Level Gander Center
Sat 01:20:28 PM 52.9333 -54.5833 70° East 540 621 35,000  Level Gander Center
Sat 01:20:54 PM 52.9500 -54.5000 72° East 540 621 35,000  Level Gander Center
Sat 01:21:28 PM 53.0000 -54.3500 61° Northeast 540 621 35,000  Level Gander Center
Sat 01:21:54 PM 53.0000 -54.2667 90° East 540 621 35,000  Level Gander Center
Sat 01:22:54 PM 53.0833 -54.0333 59° Northeast 540 621 35,000  Level Gander Center
Sat 01:23:54 PM 53.1333 -53.8000 70° East 550 633 35,000  Level Gander Center
Sat 01:24:54 PM 53.1833 -53.5500 71° East 550 633 35,000  Level Gander Center
Sat 01:25:54 PM 53.2333 -53.3167 70° East 550 633 35,000  Level Gander Center
Sat 01:26:54 PM 53.2833 -53.0833 70° East 550 633 35,000  Level Gander Center
Sat 01:27:54 PM 53.3333 -52.8333 71° East 550 633 35,000  Level Gander Center
Sat 01:28:54 PM 53.4000 -52.6000 64° Northeast 550 633 35,000  Level Gander Center
Sat 01:29:54 PM 53.4500 -52.3667 70° East 550 633 35,000  Level Gander Center
Sat 01:30:54 PM 53.5000 -52.1000 72° East 550 633 35,000  Level Gander Center
Sat 01:31:54 PM 53.5667 -51.8667 64° Northeast 550 633 35,000  Level Gander Center
Sat 01:32:54 PM 53.6167 -51.6167 71° East 550 633 35,000  Level Gander Center
Sat 01:33:54 PM 53.6667 -51.3833 70° East 550 633 35,000  Level Gander Center
Sat 01:34:54 PM 53.7333 -51.1500 64° Northeast 550 633 35,000  Level Gander Center
Sat 01:35:54 PM 53.7667 -50.9000 77° East 550 633 35,000  Level Gander Center
Sat 01:36:54 PM 53.8167 -50.6667 70° East 550 633 35,000  Level Gander Center
Sat 01:37:54 PM 53.8667 -50.4000 72° East 550 633 35,000  Level Gander Center
Sat 01:38:54 PM 53.9167 -50.1500 71° East 550 633 35,000  Level Gander Center
Sat 01:39:54 PM 53.9667 -49.9167 70° East 550 633 35,000  Level Gander Center
Sat 01:42:00 PM 54.0222 -49.5385 76° East  Level FlightAware Approximate
Sat 01:49:00 PM 54.2606 -47.7996 76° East  Level FlightAware Approximate
Sat 01:50:00 PM 54.2926 -47.5496 78° East  Level FlightAware Approximate
Sat 01:51:00 PM 54.3241 -47.2992 78° East  Level FlightAware Approximate
Sat 01:52:00 PM 54.3551 -47.0484 78° East  Level FlightAware Approximate
Sat 01:53:00 PM 54.3856 -46.7973 78° East  Level FlightAware Approximate
Sat 01:54:00 PM 54.4155 -46.5457 78° East  Level FlightAware Approximate
Sat 01:55:00 PM 54.4449 -46.2938 79° East  Level FlightAware Approximate
Sat 01:56:00 PM 54.4738 -46.0416 79° East  Level FlightAware Approximate
Sat 01:57:00 PM 54.5021 -45.7890 79° East  Level FlightAware Approximate
Sat 01:58:00 PM 54.5299 -45.5360 79° East  Level FlightAware Approximate
Sat 01:59:00 PM 54.5572 -45.2827 79° East  Level FlightAware Approximate
Sat 02:00:00 PM 54.5840 -45.0291 80° East  Level FlightAware Approximate
Sat 02:01:00 PM 54.6102 -44.7752 80° East  Level FlightAware Approximate
Sat 02:02:00 PM 54.6359 -44.5209 80° East  Level FlightAware Approximate
Sat 02:03:00 PM 54.6611 -44.2663 80° East  Level FlightAware Approximate
Sat 02:04:00 PM 54.6858 -44.0114 80° East  Level FlightAware Approximate
Sat 02:05:00 PM 54.7099 -43.7561 81° East  Level FlightAware Approximate
Sat 02:06:00 PM 54.7334 -43.5006 81° East  Level FlightAware Approximate
Sat 02:07:00 PM 54.7564 -43.2448 81° East  Level FlightAware Approximate
Sat 02:08:00 PM 54.7789 -42.9887 81° East  Level FlightAware Approximate
Sat 02:09:00 PM 54.8009 -42.7323 81° East  Level FlightAware Approximate
Sat 02:10:00 PM 54.8223 -42.4757 82° East  Level FlightAware Approximate
Sat 02:11:00 PM 54.8431 -42.2188 82° East  Level FlightAware Approximate
Sat 02:12:00 PM 54.8635 -41.9616 82° East  Level FlightAware Approximate
Sat 02:13:00 PM 54.8832 -41.7041 82° East  Level FlightAware Approximate
Sat 02:14:00 PM 54.9025 -41.4464 83° East  Level FlightAware Approximate
Sat 02:15:00 PM 54.9212 -41.1885 83° East  Level FlightAware Approximate
Sat 02:16:00 PM 54.9393 -40.9303 83° East  Level FlightAware Approximate
Sat 02:17:00 PM 54.9569 -40.6719 83° East  Level FlightAware Approximate
Sat 02:18:00 PM 54.9739 -40.4133 83° East  Level FlightAware Approximate
Sat 02:19:00 PM 54.9904 -40.1544 84° East  Level FlightAware Approximate
Sat 02:20:00 PM 55.0043 -39.8947 86° East  Level FlightAware Approximate
Sat 02:21:00 PM 55.0145 -39.6348 86° East  Level FlightAware Approximate
Sat 02:22:00 PM 55.0241 -39.3746 86° East  Level FlightAware Approximate
Sat 02:23:00 PM 55.0332 -39.1144 86° East  Level FlightAware Approximate
Sat 02:24:00 PM 55.0417 -38.8540 87° East  Level FlightAware Approximate
Sat 02:25:00 PM 55.0496 -38.5935 87° East  Level FlightAware Approximate
Sat 02:26:00 PM 55.0570 -38.3329 87° East  Level FlightAware Approximate
Sat 02:27:00 PM 55.0639 -38.0723 87° East  Level FlightAware Approximate
Sat 02:28:00 PM 55.0702 -37.8115 87° East  Level FlightAware Approximate
Sat 02:29:00 PM 55.0759 -37.5507 88° East  Level FlightAware Approximate
Sat 02:30:00 PM 55.0811 -37.2898 88° East  Level FlightAware Approximate
Sat 02:31:00 PM 55.0857 -37.0288 88° East  Level FlightAware Approximate
Sat 02:32:00 PM 55.0898 -36.7678 88° East  Level FlightAware Approximate
Sat 02:33:00 PM 55.0933 -36.5067 89° East  Level FlightAware Approximate
Sat 02:34:00 PM 55.0962 -36.2456 89° East  Level FlightAware Approximate
Sat 02:35:00 PM 55.0986 -35.9845 89° East  Level FlightAware Approximate
Sat 02:36:00 PM 55.1004 -35.7233 89° East  Level FlightAware Approximate
Sat 02:37:00 PM 55.1017 -35.4621 89° East  Level FlightAware Approximate
Sat 02:38:00 PM 55.1024 -35.2009 90° East  Level FlightAware Approximate
Sat 02:39:00 PM 55.1026 -34.9397 90° East  Level FlightAware Approximate
Sat 02:40:00 PM 55.1021 -34.6784 90° East  Level FlightAware Approximate
Sat 02:41:00 PM 55.1012 -34.4172 90° East  Level FlightAware Approximate
Sat 02:42:00 PM 55.0997 -34.1560 90° East  Level FlightAware Approximate
Sat 02:43:00 PM 55.0976 -33.8949 91° East  Level FlightAware Approximate
Sat 02:44:00 PM 55.0949 -33.6337 91° East  Level FlightAware Approximate
Sat 02:45:00 PM 55.0917 -33.3726 91° East  Level FlightAware Approximate
Sat 02:46:00 PM 55.0880 -33.1116 91° East  Level FlightAware Approximate
Sat 02:47:00 PM 55.0836 -32.8506 92° East  Level FlightAware Approximate
Sat 02:48:00 PM 55.0788 -32.5896 92° East  Level FlightAware Approximate
Sat 02:49:00 PM 55.0733 -32.3288 92° East  Level FlightAware Approximate
Sat 02:50:00 PM 55.0673 -32.0680 92° East  Level FlightAware Approximate
Sat 02:51:00 PM 55.0608 -31.8072 92° East  Level FlightAware Approximate
Sat 02:52:00 PM 55.0537 -31.5466 93° East  Level FlightAware Approximate
Sat 02:53:00 PM 55.0460 -31.2861 93° East  Level FlightAware Approximate
Sat 02:54:00 PM 55.0378 -31.0257 93° East  Level FlightAware Approximate
Sat 02:55:00 PM 55.0290 -30.7653 93° East  Level FlightAware Approximate
Sat 02:56:00 PM 55.0197 -30.5051 93° East  Level FlightAware Approximate
Sat 02:57:00 PM 55.0098 -30.2451 94° East  Level FlightAware Approximate
Sat 02:58:00 PM 54.9992 -29.9852 96° East  Level FlightAware Approximate
Sat 02:59:00 PM 54.9841 -29.7260 96° East  Level FlightAware Approximate
Sat 03:00:00 PM 54.9684 -29.4671 96° East  Level FlightAware Approximate
Sat 03:01:00 PM 54.9523 -29.2083 96° East  Level FlightAware Approximate
Sat 03:02:00 PM 54.9355 -28.9497 96° East  Level FlightAware Approximate
Sat 03:03:00 PM 54.9183 -28.6914 97° East  Level FlightAware Approximate
Sat 03:04:00 PM 54.9005 -28.4333 97° East  Level FlightAware Approximate
Sat 03:05:00 PM 54.8821 -28.1754 97° East  Level FlightAware Approximate
Sat 03:06:00 PM 54.8632 -27.9178 97° East  Level FlightAware Approximate
Sat 03:07:00 PM 54.8437 -27.6604 97° East  Level FlightAware Approximate
Sat 03:08:00 PM 54.8237 -27.4033 98° East  Level FlightAware Approximate
Sat 03:09:00 PM 54.8032 -27.1464 98° East  Level FlightAware Approximate
Sat 03:10:00 PM 54.7821 -26.8898 98° East  Level FlightAware Approximate
Sat 03:11:00 PM 54.7604 -26.6334 98° East  Level FlightAware Approximate
Sat 03:12:00 PM 54.7383 -26.3773 98° East  Level FlightAware Approximate
Sat 03:13:00 PM 54.7156 -26.1215 99° East  Level FlightAware Approximate
Sat 03:14:00 PM 54.6923 -25.8661 99° East  Level FlightAware Approximate
Sat 03:15:00 PM 54.6685 -25.6108 99° East  Level FlightAware Approximate
Sat 03:16:00 PM 54.6442 -25.3559 99° East  Level FlightAware Approximate
Sat 03:17:00 PM 54.6194 -25.1014 99° East  Level FlightAware Approximate
Sat 03:18:00 PM 54.5940 -24.8471 100° East  Level FlightAware Approximate
Sat 03:19:00 PM 54.5681 -24.5931 100° East  Level FlightAware Approximate
Sat 03:20:00 PM 54.5416 -24.3395 100° East  Level FlightAware Approximate
Sat 03:21:00 PM 54.5146 -24.0862 100° East  Level FlightAware Approximate
Sat 03:22:00 PM 54.4871 -23.8332 101° East  Level FlightAware Approximate
Sat 03:23:00 PM 54.4591 -23.5806 101° East  Level FlightAware Approximate
Sat 03:24:00 PM 54.4305 -23.3283 101° East  Level FlightAware Approximate
Sat 03:25:00 PM 54.4014 -23.0764 101° East  Level FlightAware Approximate
Sat 03:26:00 PM 54.3718 -22.8249 101° East  Level FlightAware Approximate
Sat 03:27:00 PM 54.3417 -22.5737 102° East  Level FlightAware Approximate
Sat 03:28:00 PM 54.3111 -22.3229 102° East  Level FlightAware Approximate
Sat 03:29:00 PM 54.2799 -22.0724 102° East  Level FlightAware Approximate
Sat 03:30:00 PM 54.2482 -21.8224 102° East  Level FlightAware Approximate
Sat 03:31:00 PM 54.2160 -21.5727 102° East  Level FlightAware Approximate
Sat 03:32:00 PM 54.1833 -21.3234 103° East  Level FlightAware Approximate
Sat 03:33:00 PM 54.1500 -21.0745 103° East  Level FlightAware Approximate
Sat 03:34:00 PM 54.1163 -20.8261 103° East  Level FlightAware Approximate
Sat 03:35:00 PM 54.0820 -20.5780 103° East  Level FlightAware Approximate
Sat 03:36:00 PM 54.0472 -20.3303 103° East  Level FlightAware Approximate
Sat 03:37:00 PM 54.0120 -20.0831 104° East  Level FlightAware Approximate
Sat 03:38:00 PM 53.9688 -19.8399 108° East  Level FlightAware Approximate
Sat 03:39:00 PM 53.9215 -19.5991 108° East  Level FlightAware Approximate
Sat 03:40:00 PM 53.8736 -19.3589 109° East  Level FlightAware Approximate
Sat 03:41:00 PM 53.8253 -19.1191 109° East  Level FlightAware Approximate
Sat 03:42:00 PM 53.7765 -18.8800 109° East  Level FlightAware Approximate
Sat 03:43:00 PM 53.7272 -18.6413 109° East  Level FlightAware Approximate
Sat 03:44:00 PM 53.6774 -18.4033 109° East  Level FlightAware Approximate
Sat 03:45:00 PM 53.6272 -18.1658 110° East  Level FlightAware Approximate
Sat 03:46:00 PM 53.5765 -17.9289 110° East  Level FlightAware Approximate
Sat 03:47:00 PM 53.5253 -17.6926 110° East  Level FlightAware Approximate
Sat 03:48:00 PM 53.4737 -17.4568 110° East  Level FlightAware Approximate
Sat 03:49:00 PM 53.4216 -17.2216 110° East  Level FlightAware Approximate
Sat 03:50:00 PM 53.3691 -16.9870 110° East  Level FlightAware Approximate
Sat 03:51:00 PM 53.3161 -16.7529 111° Southeast  Level FlightAware Approximate
Sat 03:52:00 PM 53.2626 -16.5195 111° Southeast  Level FlightAware Approximate
Sat 03:53:00 PM 53.2087 -16.2866 111° Southeast  Level FlightAware Approximate
Sat 03:54:00 PM 53.1543 -16.0543 111° Southeast  Level FlightAware Approximate
Sat 03:55:00 PM 53.0995 -15.8226 111° Southeast  Level FlightAware Approximate
Sat 03:56:00 PM 53.0442 -15.5915 112° Southeast  Level FlightAware Approximate
Sat 03:57:00 PM 52.9885 -15.3610 112° Southeast  Level FlightAware Approximate
Sat 03:58:00 PM 52.9323 -15.1311 112° Southeast  Level FlightAware Approximate
Sat 03:59:00 PM 52.8761 -14.9016 112° Southeast  Level FlightAware Approximate
Sat 04:00:00 PM 52.8199 -14.6723 112° Southeast  Level FlightAware Approximate
Sat 04:01:00 PM 52.7632 -14.4436 112° Southeast  Level FlightAware Approximate
Sat 04:02:00 PM 52.7061 -14.2155 112° Southeast  Level FlightAware Approximate
Sat 04:03:00 PM 52.6486 -13.9880 113° Southeast  Level FlightAware Approximate
Sat 04:04:00 PM 52.5906 -13.7611 113° Southeast  Level FlightAware Approximate
Sat 04:04:47 PM 52.3420 -12.5010 113° Southeast 517 595 35,000  Level FlightAware ADS-B
Sat 04:05:00 PM 52.5322 -13.5349 113° Southeast  Level FlightAware Approximate
Sat 04:05:17 PM 52.3100 -12.3850 114° Southeast 517 595 35,000  Level FlightAware ADS-B
Sat 04:06:07 PM 52.2590 -12.2020 114° Southeast 518 596 35,000  Level FlightAware ADS-B
Sat 04:06:47 PM 52.2190 -12.0610 115° Southeast 516 594 35,000  Level FlightAware ADS-B
Sat 04:07:22 PM 52.1860 -11.9460 115° Southeast 514 592 35,000  Level FlightAware ADS-B
Sat 04:08:07 PM 52.1390 -11.7790 115° Southeast 513 590 35,000  Level FlightAware ADS-B
Sat 04:08:57 PM 52.0890 -11.6070 115° Southeast 513 590 35,000  Level FlightAware ADS-B
Sat 04:09:32 PM 52.0520 -11.4800 115° Southeast 513 590 35,000  Level FlightAware ADS-B
Sat 04:10:07 PM 52.0190 -11.3640 115° Southeast 513 590 35,000  Level FlightAware ADS-B
Sat 04:10:57 PM 51.9660 -11.1830 115° Southeast 513 590 35,000  Level FlightAware ADS-B
Sat 04:11:27 PM 51.9330 -11.0710 116° Southeast 517 595 35,000  Level FlightAware ADS-B
Sat 04:12:07 PM 51.8920 -10.9330 116° Southeast 517 595 35,000  Level FlightAware ADS-B
Sat 04:13:27 PM 51.8150 -10.6760 116° Southeast 519 597 35,000  Level FlightAware ADS-B
Sat 04:13:52 PM 51.7890 -10.5900 116° Southeast 521 600 35,000  Level FlightAware ADS-B
Sat 04:14:37 PM 51.7360 -10.4140 116° Southeast 522 601 35,000  Level FlightAware ADS-B
Sat 04:15:07 PM 51.7030 -10.3050 116° Southeast 520 598 35,000  Level FlightAware ADS-B
Sat 04:15:57 PM 51.6480 -10.1250 116° Southeast 522 601 35,000  Level FlightAware ADS-B
Sat 04:16:17 PM 51.6270 -10.0570 116° Southeast 523 602 35,000  Level FlightAware ADS-B
Sat 04:17:07 PM 51.5730 -9.8820 116° Southeast 519 597 35,000  Level FlightAware ADS-B
Sat 04:19:00 PM 51.4216 -9.5009 122° Southeast  Level FlightAware Approximate
Sat 04:20:00 PM 51.3407 -9.2996 123° Southeast  Level FlightAware Approximate
Sat 04:20:07 PM 51.3830 -9.2780 123° Southeast 521 600 35,000  Level FlightAware ADS-B
Sat 04:20:52 PM 51.3290 -9.1070 117° Southeast 525 604 35,000 -1,169 Level FlightAware ADS-B
Sat 04:21:24 PM 51.2900 -8.9875 117° Southeast 474 545 33,500  Descending FlightAware UK
Sat 04:21:32 PM 51.2830 -8.9670 117° Southeast 527 606 35,000  Climbing FlightAware ADS-B
Sat 04:21:48 PM 51.2631 -8.9049 117° Southeast 472 543 33,500 -2,647 Descending FlightAware UK
Sat 04:22:06 PM 51.2431 -8.8428 117° Southeast 474 545 33,500 3,103 Level FlightAware UK
Sat 04:22:17 PM 51.2330 -8.8100 117° Southeast 528 608 35,000  Climbing FlightAware ADS-B
Sat 04:22:36 PM 51.2096 -8.7393 117° Southeast 474 545 33,500 -2,432 Descending FlightAware UK
Sat 04:22:54 PM 51.1896 -8.6772 117° Southeast 474 545 33,500 4,286 Level FlightAware UK
Sat 04:22:57 PM 51.1870 -8.6700 117° Southeast 528 608 35,000  Climbing FlightAware ADS-B
Sat 04:23:12 PM 51.1694 -8.6151 117° Southeast 476 548 33,500 -2,727 Descending FlightAware UK
Sat 04:23:30 PM 51.1496 -8.5527 117° Southeast 474 545 33,500 3,600 Level FlightAware UK
Sat 04:23:37 PM 51.1460 -8.5350 117° Southeast 528 608 35,000  Climbing FlightAware ADS-B
Sat 04:23:54 PM 51.1247 -8.4685 117° Southeast 472 543 33,500 -2,571 Descending FlightAware UK
Sat 04:24:12 PM 51.1063 -8.4050 115° Southeast 474 545 33,500 3,214 Level FlightAware UK
Sat 04:24:22 PM 51.1050 -8.3950 115° Southeast 531 611 35,000  Climbing FlightAware ADS-B
Sat 04:24:42 PM 51.0754 -8.2992 115° Southeast 474 545 33,500 -2,368 Descending FlightAware UK
Sat 04:25:00 PM 51.0567 -8.2358 115° Southeast 474 545 33,500 4,500 Level FlightAware UK
Sat 04:25:02 PM 51.0570 -8.2360 115° Southeast 531 611 35,000  Climbing FlightAware ADS-B
Sat 04:25:18 PM 51.0376 -8.1717 115° Southeast 474 545 33,500 -2,647 Descending FlightAware UK
Sat 04:25:36 PM 51.0182 -8.1086 116° Southeast 474 545 33,500 3,750 Level FlightAware UK
Sat 04:25:42 PM 51.0150 -8.0970 116° Southeast 532 612 35,000  Climbing FlightAware ADS-B
Sat 04:26:00 PM 50.9923 -8.0246 116° Southeast 474 545 33,500  Descending FlightAware UK
Sat 04:26:17 PM 50.9760 -7.9710 116° Southeast 534 615 35,000  Climbing FlightAware ADS-B
Sat 04:26:18 PM 50.9727 -7.9616 116° Southeast 474 545 33,500 -4,737 Descending FlightAware UK
Sat 04:26:36 PM 50.9533 -7.8984 116° Southeast 476 548 33,500  Level FlightAware UK
Sat 04:26:54 PM 50.9337 -7.8353 116° Southeast 476 548 33,500 4,286 Level FlightAware UK
Sat 04:26:57 PM 50.9320 -7.8300 116° Southeast 534 615 35,000  Climbing FlightAware ADS-B
Sat 04:27:12 PM 50.9140 -7.7722 116° Southeast 476 548 33,500 -2,727 Descending FlightAware UK
Sat 04:27:30 PM 50.8945 -7.7091 116° Southeast 474 545 33,500 3,600 Level FlightAware UK
Sat 04:27:37 PM 50.8880 -7.6880 116° Southeast 534 615 35,000  Climbing FlightAware ADS-B
Sat 04:27:54 PM 50.8681 -7.6252 116° Southeast 474 545 33,500 -2,571 Descending FlightAware UK
Sat 04:28:12 PM 50.8483 -7.5623 116° Southeast 474 545 33,500 3,913 Level FlightAware UK
Sat 04:28:17 PM 50.8460 -7.5530 116° Southeast 535 616 35,000  Climbing FlightAware ADS-B
Sat 04:28:36 PM 50.8219 -7.4784 116° Southeast 476 548 33,500 -2,432 Descending FlightAware UK
Sat 04:28:54 PM 50.8021 -7.4155 116° Southeast 476 548 33,500 3,462 Level FlightAware UK
Sat 04:29:02 PM 50.7960 -7.3940 116° Southeast 534 615 35,000  Climbing FlightAware ADS-B
Sat 04:29:18 PM 50.7758 -7.3317 116° Southeast 476 548 33,500 -2,647 Descending FlightAware UK
Sat 04:29:36 PM 50.7559 -7.2689 117° Southeast 476 548 33,500 3,750 Level FlightAware UK
Sat 04:29:42 PM 50.7530 -7.2560 117° Southeast 535 616 35,000  Climbing FlightAware ADS-B
Sat 04:30:00 PM 50.7295 -7.1850 117° Southeast 476 548 33,500 -2,500 Descending FlightAware UK
Sat 04:30:18 PM 50.7096 -7.1223 117° Southeast 476 548 33,500 3,333 Level FlightAware UK
Sat 04:30:27 PM 50.7010 -7.0960 117° Southeast 537 618 35,000  Climbing FlightAware ADS-B
Sat 04:30:42 PM 50.6828 -7.0388 117° Southeast 476 548 33,500 -2,727 Descending FlightAware UK
Sat 04:31:00 PM 50.6625 -6.9754 117° Southeast 476 548 33,500 3,600 Level FlightAware UK
Sat 04:31:07 PM 50.6580 -6.9590 117° Southeast 536 617 35,000  Climbing FlightAware ADS-B
Sat 04:31:24 PM 50.6356 -6.8920 117° Southeast 476 548 33,500 -2,571 Descending FlightAware UK
Sat 04:31:42 PM 50.6154 -6.8294 117° Southeast 478 550 33,500 3,913 Level FlightAware UK
Sat 04:31:47 PM 50.6130 -6.8180 117° Southeast 536 617 35,000  Climbing FlightAware ADS-B
Sat 04:32:06 PM 50.5887 -6.7459 117° Southeast 476 548 33,500 -2,432 Descending FlightAware UK
Sat 04:32:24 PM 50.5685 -6.6833 117° Southeast 476 548 33,500 3,462 Level FlightAware UK
Sat 04:32:32 PM 50.5630 -6.6630 117° Southeast 537 618 35,000  Climbing FlightAware ADS-B
Sat 04:32:48 PM 50.5415 -6.6000 117° Southeast 476 548 33,500 -2,647 Descending FlightAware UK
Sat 04:33:06 PM 50.5211 -6.5376 117° Southeast 476 548 33,500 3,750 Level FlightAware UK
Sat 04:33:12 PM 50.5180 -6.5270 117° Southeast 538 619 35,000  Climbing FlightAware ADS-B
Sat 04:33:30 PM 50.4939 -6.4544 117° Southeast 478 550 33,500 -2,500 Descending FlightAware UK
Sat 04:33:48 PM 50.4735 -6.3921 117° Southeast 478 550 33,500 4,091 Level FlightAware UK
Sat 04:33:52 PM 50.4720 -6.3850 117° Southeast 538 619 35,000  Climbing FlightAware ADS-B
Sat 04:34:12 PM 50.4467 -6.3085 117° Southeast 482 555 33,500 -2,368 Descending FlightAware UK
Sat 04:34:30 PM 50.4264 -6.2462 117° Southeast 480 552 33,500 3,600 Level FlightAware UK
Sat 04:34:37 PM 50.4200 -6.2290 117° Southeast 537 618 35,000  Climbing FlightAware ADS-B
Sat 04:34:54 PM 50.3991 -6.1634 117° Southeast 478 550 33,500 -2,571 Descending FlightAware UK
Sat 04:35:12 PM 50.3784 -6.1015 118° Southeast 478 550 33,500 3,214 Level FlightAware UK
Sat 04:35:22 PM 50.3700 -6.0760 118° Southeast 536 617 35,000  Climbing FlightAware ADS-B
Sat 04:35:42 PM 50.3440 -5.9985 118° Southeast 478 550 33,500 -2,368 Descending FlightAware UK
Sat 04:36:00 PM 50.3234 -5.9368 118° Southeast 480 552 33,500 4,500 Level FlightAware UK
Sat 04:36:02 PM 50.3240 -5.9380 118° Southeast 535 616 35,000  Climbing FlightAware ADS-B
Sat 04:36:18 PM 50.3025 -5.8745 118° Southeast 478 550 33,500 -2,647 Descending FlightAware UK
Sat 04:36:36 PM 50.2820 -5.8129 117° Southeast 478 550 33,500 3,750 Level FlightAware UK
Sat 04:36:42 PM 50.2780 -5.8030 117° Southeast 535 616 35,000  Climbing FlightAware ADS-B
Sat 04:37:00 PM 50.2545 -5.7310 117° Southeast 478 550 33,500  Descending FlightAware UK
Sat 04:37:17 PM 50.2370 -5.6780 118° Southeast 535 616 35,000  Climbing FlightAware ADS-B
Sat 04:37:18 PM 50.2338 -5.6696 118° Southeast 478 550 33,500 -4,737 Descending FlightAware UK
Sat 04:37:36 PM 50.2131 -5.6083 118° Southeast 478 550 33,500  Level FlightAware UK
Sat 04:37:54 PM 50.1923 -5.5471 118° Southeast 478 550 33,500 2,903 Level FlightAware UK
Sat 04:38:07 PM 50.1790 -5.5080 118° Southeast 535 616 35,000  Climbing FlightAware ADS-B
Sat 04:38:24 PM 50.1577 -5.4452 118° Southeast 478 550 33,500  Descending FlightAware UK
Sat 04:38:37 PM 50.1450 -5.4090 118° Southeast 534 615 35,000  Climbing FlightAware ADS-B
Sat 04:38:54 PM 50.1231 -5.3434 118° Southeast 476 548 33,500 -2,571 Descending FlightAware UK
Sat 04:39:12 PM 50.1023 -5.2823 118° Southeast 478 550 33,500 3,214 Level FlightAware UK
Sat 04:39:22 PM 50.0940 -5.2590 118° Southeast 535 616 35,000  Climbing FlightAware ADS-B
Sat 04:39:42 PM 50.0673 -5.1808 118° Southeast 478 550 33,500 -2,368 Descending FlightAware UK
Sat 04:40:00 PM 50.0463 -5.1200 118° Southeast 478 550 33,500 4,500 Level FlightAware UK
Sat 04:40:02 PM 50.0470 -5.1220 118° Southeast 535 616 35,000  Climbing FlightAware ADS-B
Sat 04:40:18 PM 50.0253 -5.0591 118° Southeast 478 550 33,500 -2,647 Descending FlightAware UK
Sat 04:40:36 PM 50.0042 -4.9984 118° Southeast 478 550 33,500 3,750 Level FlightAware UK
Sat 04:40:42 PM 50.0000 -4.9870 118° Southeast 535 616 35,000  Climbing FlightAware ADS-B
Sat 04:41:00 PM 49.9761 -4.9175 118° Southeast 478 550 33,500 -2,500 Descending FlightAware UK
Sat 04:41:18 PM 49.9552 -4.8567 118° Southeast 480 552 33,500 4,091 Level FlightAware UK
Sat 04:41:22 PM 49.9530 -4.8530 118° Southeast 534 615 35,000  Climbing FlightAware ADS-B
Sat 04:41:42 PM 49.9270 -4.7761 118° Southeast 478 550 33,500 -2,368 Descending FlightAware UK
Sat 04:42:00 PM 49.9055 -4.7151 119° Southeast 478 550 33,500 3,600 Level FlightAware UK
Sat 04:42:07 PM 49.9000 -4.7000 119° Southeast 533 613 35,000  Climbing FlightAware ADS-B
Sat 04:42:24 PM 49.8772 -4.6347 119° Southeast 478 550 33,500 -2,571 Descending FlightAware UK
Sat 04:42:42 PM 49.8559 -4.5745 119° Southeast 478 550 33,500 3,214 Level FlightAware UK
Sat 04:42:52 PM 49.8470 -4.5490 119° Southeast 534 615 35,000  Climbing FlightAware ADS-B
Sat 04:43:12 PM 49.8204 -4.4740 119° Southeast 480 552 33,500 -2,368 Descending FlightAware UK
Sat 04:43:30 PM 49.7993 -4.4137 119° Southeast 478 550 33,500 4,500 Level FlightAware UK
Sat 04:43:32 PM 49.8000 -4.4150 119° Southeast 533 613 35,000  Climbing FlightAware ADS-B
Sat 04:43:48 PM 49.7780 -4.3536 119° Southeast 478 550 33,500 -2,647 Descending FlightAware UK
Sat 04:44:06 PM 49.7566 -4.2935 119° Southeast 478 550 33,500 3,750 Level FlightAware UK
Sat 04:44:12 PM 49.7530 -4.2830 119° Southeast 533 613 35,000  Climbing FlightAware ADS-B
Sat 04:44:30 PM 49.7280 -4.2137 119° Southeast 480 552 33,500  Descending FlightAware UK
Sat 04:44:47 PM 49.7110 -4.1670 119° Southeast 533 613 35,000  Climbing FlightAware ADS-B
Sat 04:44:49 PM 49.7064 -4.1532 119° Southeast 480 552 33,500 -4,500 Descending FlightAware UK
Sat 04:45:07 PM 49.6850 -4.0935 119° Southeast 480 552 33,500  Level FlightAware UK
Sat 04:45:25 PM 49.6647 -4.0328 117° Southeast 480 552 33,500 3,000 Level FlightAware UK
Sat 04:45:37 PM 49.6560 -3.9930 117° Southeast 533 613 35,000  Climbing FlightAware ADS-B
Sat 04:45:55 PM 49.6433 -3.9237 117° Southeast 480 552 33,500  Descending FlightAware UK
Sat 04:46:12 PM 49.6370 -3.8690 100° East 535 616 35,000  Climbing FlightAware ADS-B
Sat 04:46:13 PM 49.6359 -3.8564 100° East 484 557 33,500 -4,737 Descending FlightAware UK
Sat 04:46:31 PM 49.6324 -3.7878 100° East 484 557 33,500  Level FlightAware UK
Sat 04:46:49 PM 49.6279 -3.7199 96° East 482 555 33,500 2,903 Level FlightAware UK
Sat 04:47:02 PM 49.6250 -3.6790 96° East 533 613 35,000  Climbing FlightAware ADS-B
Sat 04:47:19 PM 49.6209 -3.6068 96° East 480 552 33,500 -2,571 Descending FlightAware UK
Sat 04:47:37 PM 49.6169 -3.5389 95° East 480 552 33,500 3,913 Level FlightAware UK
Sat 04:47:42 PM 49.6160 -3.5250 95° East 532 612 35,000  Climbing FlightAware ADS-B
Sat 04:48:01 PM 49.6114 -3.4478 95° East 478 550 33,500 -2,432 Descending FlightAware UK
Sat 04:48:19 PM 49.6074 -3.3801 95° East 478 550 33,500 3,462 Level FlightAware UK
Sat 04:48:27 PM 49.6060 -3.3630 95° East 531 611 35,000  Climbing FlightAware ADS-B
Sat 04:48:43 PM 49.6016 -3.2900 95° East 478 550 33,500 -2,647 Descending FlightAware UK
Sat 04:49:01 PM 49.5971 -3.2224 96° East 476 548 33,500 3,750 Level FlightAware UK
Sat 04:49:07 PM 49.5960 -3.2090 96° East 531 611 35,000  Climbing FlightAware ADS-B
Sat 04:49:25 PM 49.5912 -3.1315 96° East 476 548 33,500 -2,500 Descending FlightAware UK
Sat 04:49:43 PM 49.5866 -3.0631 96° East 476 548 33,500 4,091 Level FlightAware UK
Sat 04:49:47 PM 49.5860 -3.0590 96° East 531 611 35,000  Climbing FlightAware ADS-B
Sat 04:50:07 PM 49.5807 -2.9737 96° East 478 550 33,500 -2,368 Descending FlightAware UK
Sat 04:50:25 PM 49.5761 -2.9052 96° East 478 550 33,500 3,600 Level FlightAware UK
Sat 04:50:32 PM 49.5750 -2.8850 96° East 533 613 35,000  Climbing FlightAware ADS-B
Sat 04:50:49 PM 49.5699 -2.8148 96° East 478 550 33,500 -2,571 Descending FlightAware UK
Sat 04:51:07 PM 49.5651 -2.7470 96° East 478 550 33,500 3,913 Level FlightAware UK
Sat 04:51:12 PM 49.5640 -2.7340 96° East 535 616 35,000 8,182 Climbing FlightAware ADS-B
Sat 04:51:18 PM 49.5622 -2.7058 96° East 535 616 35,000 -3,600 Level FlightAware ADS-B
Sat 04:51:37 PM 49.5571 -2.6346 96° East 482 555 33,500 -2,432 Descending FlightAware UK
Sat 04:51:55 PM 49.5523 -2.5667 96° East 480 552 33,500 4,286 Level FlightAware UK
Sat 04:51:58 PM 49.5516 -2.5555 96° East 535 616 35,000  Climbing FlightAware ADS-B
Sat 04:52:13 PM 49.5472 -2.4971 96° East 482 555 33,500 -2,727 Descending FlightAware UK
Sat 04:52:31 PM 49.5422 -2.4291 96° East 482 555 33,500  Level FlightAware UK
Sat 04:52:49 PM 49.5373 -2.3611 96° East 482 555 33,500  Level FlightAware UK
Sat 04:53:07 PM 49.5323 -2.2931 96° East 480 552 33,500 5,000 Level FlightAware UK
Sat 04:53:07 PM 49.5340 -2.3080 96° East 535 616 35,000  Climbing FlightAware ADS-B
Sat 04:53:26 PM 49.5273 -2.2242 96° East 486 559 33,500 -2,432 Descending FlightAware UK
Sat 04:53:44 PM 49.5222 -2.1562 97° East 484 557 33,500 4,286 Level FlightAware UK
Sat 04:53:47 PM 49.5230 -2.1590 97° East 534 615 35,000 5,625 Climbing FlightAware ADS-B
Sat 04:54:00 PM 49.5179 -2.0949 97° East 535 616 35,000  Level FlightAware ADS-B
Sat 04:54:06 PM 49.5163 -2.0731 96° East 536 617 35,000 -3,462 Level FlightAware ADS-B
Sat 04:54:26 PM 49.5104 -1.9976 96° East 480 552 33,500  Descending FlightAware UK
Sat 04:54:33 PM 49.5085 -1.9693 96° East 536 617 35,000  Climbing FlightAware ADS-B
Sat 04:54:50 PM 49.5035 -1.9065 96° East 484 557 33,500  Descending FlightAware UK
Sat 04:54:57 PM 49.5016 -1.8795 96° East 536 617 35,000  Climbing FlightAware ADS-B
Sat 04:55:14 PM 49.4968 -1.8163 96° East 488 562 33,500  Descending FlightAware UK
Sat 04:55:19 PM 49.4953 -1.7983 96° East 535 616 35,000  Climbing FlightAware ADS-B
Sat 04:55:38 PM 49.4894 -1.7251 96° East 484 557 33,500  Descending FlightAware UK
Sat 04:55:44 PM 49.4878 -1.7027 96° East 534 615 35,000 8,182 Climbing FlightAware ADS-B
Sat 04:55:49 PM 49.4863 -1.6839 97° East 533 613 35,000 -3,750 Level FlightAware ADS-B
Sat 04:56:08 PM 49.4806 -1.6127 97° East 478 550 33,500  Descending FlightAware UK
Sat 04:56:22 PM 49.4766 -1.5599 97° East 533 613 35,000  Climbing FlightAware ADS-B
Sat 04:56:38 PM 49.4720 -1.5006 97° East 480 552 33,500  Descending FlightAware UK
Sat 04:56:46 PM 49.4694 -1.4711 97° East 533 613 35,000 6,000 Climbing FlightAware ADS-B
Sat 04:56:53 PM 49.4674 -1.4460 97° East 533 613 35,000 -4,091 Level FlightAware ADS-B
Sat 04:57:08 PM 49.4629 -1.3873 97° East 482 555 33,500  Descending FlightAware UK
Sat 04:57:22 PM 49.4584 -1.3357 97° East 533 613 35,000 5,625 Climbing FlightAware ADS-B
Sat 04:57:24 PM 49.4577 -1.3271 97° East 533 613 35,000 -4,364 Level FlightAware ADS-B
Sat 04:57:44 PM 49.4515 -1.2525 97° East 484 557 33,400 -343 Descending FlightAware UK
Sat 04:57:59 PM 49.4466 -1.1995 97° East 533 613 34,800 4,105 Climbing FlightAware ADS-B
Sat 04:58:03 PM 49.4454 -1.1852 97° East 524 603 34,700 -5,429 Descending FlightAware ADS-B
Sat 04:58:20 PM 49.4396 -1.1191 97° East 462 532 32,900 -3,771 Descending FlightAware UK
Sat 04:58:38 PM 49.4350 -1.0537 96° East 458 527 32,500 3,474 Descending FlightAware UK
Sat 04:58:39 PM 49.4352 -1.0533 96° East 518 596 34,000 9,333 Climbing FlightAware ADS-B
Sat 04:58:47 PM 49.4334 -1.0249 96° East 520 598 33,900 -5,217 Descending FlightAware ADS-B
Sat 04:59:02 PM 49.4295 -0.9669 96° East 458 527 32,000 -1,071 Descending FlightAware UK
Sat 04:59:15 PM 49.4266 -0.9209 96° East 517 595 33,400 4,875 Climbing FlightAware ADS-B
Sat 04:59:18 PM 49.4259 -0.9105 96° East 509 586 33,300 -6,667 Descending FlightAware ADS-B
Sat 04:59:33 PM 49.4223 -0.8583 96° East 448 516 31,400 -1,548 Descending FlightAware UK
Sat 04:59:49 PM 49.4165 -0.8017 96° East 507 583 32,500 -1,667 Climbing FlightAware ADS-B
Sat 05:00:09 PM 49.4097 -0.7305 96° East 438 504 30,400 -1,600 Descending FlightAware UK
Sat 05:00:19 PM 49.4064 -0.6949 96° East 506 582 31,700 -1,400 Climbing FlightAware ADS-B
Sat 05:00:39 PM 49.3997 -0.6240 96° East 436 502 29,700 -1,538 Descending FlightAware UK
Sat 05:00:58 PM 49.3930 -0.5578 96° East 503 579 30,700 -1,833 Climbing FlightAware ADS-B
Sat 05:01:15 PM 49.3870 -0.4968 96° East 426 490 28,600 -1,588 Descending FlightAware UK
Sat 05:01:32 PM 49.3816 -0.4387 96° East 501 577 29,800 -1,333 Climbing FlightAware ADS-B
Sat 05:01:51 PM 49.3752 -0.3706 96° East 426 490 27,800 -2,323 Descending FlightAware UK
Sat 05:02:03 PM 49.3721 -0.3278 96° East 501 577 28,600 -2,400 Climbing FlightAware ADS-B
Sat 05:02:21 PM 49.3668 -0.2647 96° East 440 506 26,600 -3,500 Descending FlightAware UK
Sat 05:02:39 PM 49.3613 -0.1998 97° East 440 506 26,500 4,000 Descending FlightAware UK
Sat 05:02:42 PM 49.3606 -0.1910 97° East 509 586 28,000  Climbing FlightAware ADS-B
Sat 05:02:57 PM 49.3559 -0.1351 97° East 446 513 26,500  Descending FlightAware UK
Sat 05:03:15 PM 49.3507 -0.0725 97° East 515 593 28,000  Climbing FlightAware ADS-B
Sat 05:03:33 PM 49.3451 -0.0056 97° East 448 516 26,500  Descending FlightAware UK
Sat 05:03:45 PM 49.3415 0.0375 97° East 516 594 28,000  Climbing FlightAware ADS-B
Sat 05:04:03 PM 49.3354 0.1038 97° East 450 518 26,500  Descending FlightAware UK
Sat 05:04:16 PM 49.3299 0.1476 97° East 518 596 28,000 3,500 Climbing FlightAware ADS-B
Sat 05:04:27 PM 49.3270 0.1879 96° East 516 594 27,900 -4,138 Descending FlightAware ADS-B
Sat 05:04:45 PM 49.3263 0.2560 96° East 446 513 26,000 -1,765 Descending FlightAware UK
Sat 05:05:01 PM 49.3264 0.3130 96° East 506 582 26,900 -2,333 Climbing FlightAware ADS-B
Sat 05:05:21 PM 49.3268 0.3853 96° East 438 504 24,600 -4,579 Descending FlightAware UK
Sat 05:05:39 PM 49.3270 0.4491 90° East 434 499 24,000 1,333 Descending FlightAware UK
Sat 05:05:48 PM 49.3265 0.4773 90° East 497 572 25,200 -2,160 Climbing FlightAware ADS-B
Sat 05:06:04 PM 49.3263 0.5341 90° East 428 493 23,100 -2,200 Descending FlightAware UK
Sat 05:06:18 PM 49.3250 0.5821 90° East 489 563 24,100 -2,200 Climbing FlightAware ADS-B
Sat 05:06:34 PM 49.3240 0.6374 90° East 428 493 22,000 -2,000 Descending FlightAware UK
Sat 05:06:48 PM 49.3229 0.6854 90° East 482 555 23,100 -2,000 Climbing FlightAware ADS-B
Sat 05:07:04 PM 49.3216 0.7396 90° East 422 486 21,000 -2,200 Descending FlightAware UK
Sat 05:07:18 PM 49.3202 0.7871 90° East 474 545 22,000 -2,200 Climbing FlightAware ADS-B
Sat 05:07:34 PM 49.3187 0.8409 90° East 418 481 19,900 -2,129 Descending FlightAware UK
Sat 05:07:49 PM 49.3173 0.8913 90° East 466 536 20,900 -2,000 Climbing FlightAware ADS-B
Sat 05:08:04 PM 49.3158 0.9398 90° East 410 472 18,900 -4,727 Descending FlightAware UK
Sat 05:08:22 PM 49.3141 0.9982 93° East 404 465 18,300 3,000 Descending FlightAware UK
Sat 05:08:22 PM 49.3141 0.9986 93° East 460 529 19,800 -2,000 Climbing FlightAware ADS-B
Sat 05:08:40 PM 49.3123 1.0559 93° East 404 465 17,700 -1,935 Descending FlightAware UK
Sat 05:08:53 PM 49.3114 1.0979 93° East 451 519 18,800 -2,000 Climbing FlightAware ADS-B
Sat 05:09:10 PM 49.3096 1.1514 93° East 394 453 16,700 -2,000 Descending FlightAware UK
Sat 05:09:23 PM 49.3086 1.1936 93° East 444 511 17,800 -2,000 Climbing FlightAware ADS-B
Sat 05:09:40 PM 49.3071 1.2465 93° East 392 451 15,700 -1,935 Descending FlightAware UK
Sat 05:09:54 PM 49.3060 1.2881 93° East 439 505 16,800 -1,800 Climbing FlightAware ADS-B
Sat 05:10:10 PM 49.3045 1.3391 93° East 388 447 14,800 -1,800 Descending FlightAware UK
Sat 05:10:24 PM 49.3033 1.3802 93° East 430 495 15,900 -2,000 Climbing FlightAware ADS-B
Sat 05:10:40 PM 49.3017 1.4302 93° East 380 437 13,800 -1,935 Descending FlightAware UK
Sat 05:10:55 PM 49.3006 1.4747 93° East 426 490 14,900 -1,800 Climbing FlightAware ADS-B
Sat 05:11:10 PM 49.2992 1.5197 93° East 378 435 12,900 -1,400 Descending FlightAware UK
Sat 05:11:25 PM 49.2979 1.5648 93° East 415 478 14,200 -1,000 Climbing FlightAware ADS-B
Sat 05:11:40 PM 49.2965 1.6087 93° East 368 423 12,400 -968 Descending FlightAware UK
Sat 05:11:56 PM 49.2951 1.6536 93° East 407 468 13,700 -1,167 Climbing FlightAware ADS-B
Sat 05:12:16 PM 49.2932 1.7111 93° East 362 417 11,700 -1,161 Descending FlightAware UK
Sat 05:12:27 PM 49.2923 1.7429 93° East 402 463 13,100 -1,000 Climbing FlightAware ADS-B
Sat 05:12:46 PM 49.2904 1.7968 93° East 362 417 11,200 -1,000 Descending FlightAware UK
Sat 05:12:57 PM 49.2891 1.8281 93° East 400 460 12,600 -1,000 Climbing FlightAware ADS-B
Sat 05:13:16 PM 49.2865 1.8820 93° East 356 410 10,700 -968 Descending FlightAware UK
Sat 05:13:28 PM 49.2849 1.9128 93° East 392 451 12,100 -1,400 Climbing FlightAware ADS-B
Sat 05:13:46 PM 49.2821 1.9662 93° East 352 405 10,000 -1,600 Descending FlightAware UK
Sat 05:13:58 PM 49.2807 1.9972 93° East 394 453 11,300 -1,000 Climbing FlightAware ADS-B
Sat 05:14:16 PM 49.2785 2.0502 93° East 354 407 9,500 -581 Descending FlightAware UK
Sat 05:14:29 PM 49.2767 2.0818 93° East 391 450 11,000 -194 Climbing FlightAware ADS-B
Sat 05:14:47 PM 49.2751 2.1343 93° East 352 405 9,400  Descending FlightAware UK
Sat 05:14:59 PM 49.2726 2.1666 93° East 390 449 11,000 207 Climbing FlightAware ADS-B
Sat 05:15:16 PM 49.2712 2.2161 93° East 352 405 9,500  Descending FlightAware UK
Sat 05:15:32 PM 49.2686 2.2513 93° East 388 447 11,000 1,957 Climbing FlightAware ADS-B
Sat 05:16:02 PM 49.2644 2.3395 94° East 392 451 11,000  Level FlightAware ADS-B
Sat 05:16:33 PM 49.2601 2.4240 94° East 390 449 11,000 -122 Level FlightAware ADS-B
Sat 05:16:51 PM 49.2576 2.4729 94° East 382 440 10,900 -923 Descending FlightAware ADS-B
Sat 05:17:12 PM 49.2535 2.5279 96° East 378 435 10,400 -1,273 Descending FlightAware ADS-B
Sat 05:17:24 PM 49.2500 2.5602 99° East 370 426 10,200 -727 Descending FlightAware ADS-B
Sat 05:17:45 PM 49.2606 2.5811 52° Northeast 362 417 10,000 -486 Descending FlightAware ADS-B
Sat 05:18:01 PM 49.2393 2.6512 115° Southeast 353 406 9,900 -581 Descending FlightAware ADS-B
Sat 05:18:16 PM 49.2351 2.6873 100° East 345 397 9,700 -600 Descending FlightAware ADS-B
Sat 05:18:31 PM 49.2309 2.7232 100° East 334 384 9,600 -400 Descending FlightAware ADS-B
Sat 05:18:46 PM 49.2269 2.7581 100° East 326 375 9,500 -800 Descending FlightAware ADS-B
Sat 05:19:01 PM 49.2226 2.7931 101° East 325 374 9,200 -1,161 Descending FlightAware ADS-B
Sat 05:19:17 PM 49.2184 2.8280 100° East 326 375 8,900 -750 Descending FlightAware ADS-B
Sat 05:19:33 PM 49.2142 2.8638 100° East 318 366 8,800 -563 Descending FlightAware ADS-B
Sat 05:19:49 PM 49.2105 2.8988 99° East 311 358 8,600 -828 Descending FlightAware ADS-B
Sat 05:20:02 PM 49.2075 2.9262 100° East 310 357 8,400 -1,154 Descending FlightAware ADS-B
Sat 05:20:15 PM 49.2044 2.9545 99° East 311 358 8,100 -1,412 Descending FlightAware ADS-B
Sat 05:20:19 PM 49.2032 2.9624 103° East 308 354 8,000 -1,714 Descending FlightAware ADS-B
Sat 05:20:22 PM 49.2017 2.9693 108° East 305 351 7,900 -2,250 Descending FlightAware ADS-B
Sat 05:20:27 PM 49.1985 2.9792 116° Southeast 301 346 7,700 -1,500 Descending FlightAware ADS-B
Sat 05:20:30 PM 49.1962 2.9847 123° Southeast 298 343 7,700 -1,333 Level FlightAware ADS-B
Sat 05:20:36 PM 49.1917 2.9931 130° Southeast 294 338 7,500 -1,800 Descending FlightAware ADS-B
Sat 05:20:40 PM 49.1871 2.9996 137° Southeast 290 334 7,400 -1,714 Descending FlightAware ADS-B
Sat 05:20:43 PM 49.1838 3.0033 144° Southeast 285 328 7,300 -857 Descending FlightAware ADS-B
Sat 05:20:47 PM 49.1796 3.0072 149° Southeast 280 322 7,300 -857 Level FlightAware ADS-B
Sat 05:20:50 PM 49.1760 3.0098 155° Southeast 277 319 7,200 -2,000 Descending FlightAware ADS-B
Sat 05:20:53 PM 49.1723 3.0120 159° South 274 315 7,100 -2,000 Descending FlightAware ADS-B
Sat 05:20:56 PM 49.1686 3.0136 164° South 270 311 7,000 -1,714 Descending FlightAware ADS-B
Sat 05:21:00 PM 49.1638 3.0153 167° South 268 308 6,900 -1,091 Descending FlightAware ADS-B
Sat 05:21:07 PM 49.1564 3.0174 170° South 265 305 6,800 -1,125 Descending FlightAware ADS-B
Sat 05:21:16 PM 49.1450 3.0199 172° South 261 300 6,600 -1,500 Descending FlightAware ADS-B
Sat 05:21:31 PM 49.1266 3.0237 172° South 258 297 6,200 -1,688 Descending FlightAware ADS-B
Sat 05:21:48 PM 49.1076 3.0272 173° South 258 297 5,700 -1,371 Descending FlightAware ADS-B
Sat 05:22:06 PM 49.0861 3.0311 173° South 261 300 5,400 -800 Descending FlightAware ADS-B
Sat 05:22:18 PM 49.0721 3.0334 174° South 246 283 5,300 -375 Descending FlightAware ADS-B
Sat 05:22:22 PM 49.0673 3.0334 180° South 240 276 5,300 -1,000 Level FlightAware ADS-B
Sat 05:22:30 PM 49.0587 3.0306 192° South 232 267 5,100 -1,500 Descending FlightAware ADS-B
Sat 05:22:34 PM 49.0547 3.0280 203° Southwest 228 262 5,000 -750 Descending FlightAware ADS-B
Sat 05:22:38 PM 49.0516 3.0251 212° Southwest 227 261 5,000 -750 Level FlightAware ADS-B
Sat 05:22:42 PM 49.0484 3.0214 217° Southwest 226 260 4,900 -1,500 Descending FlightAware ADS-B
Sat 05:22:46 PM 49.0453 3.0173 221° Southwest 224 258 4,800 -545 Descending FlightAware ADS-B
Sat 05:22:53 PM 49.0398 3.0091 224° Southwest 217 250 4,800 -522 Level FlightAware ADS-B
Sat 05:23:09 PM 49.0294 2.9929 226° Southwest 206 237 4,600 -621 Descending FlightAware ADS-B
Sat 05:23:22 PM 49.0210 2.9797 226° Southwest 198 228 4,500 -750 Descending FlightAware ADS-B
Sat 05:23:25 PM 49.0190 2.9763 228° Southwest 197 227 4,400 -2,000 Descending FlightAware ADS-B
Sat 05:23:28 PM 49.0173 2.9727 234° Southwest 197 227 4,300 -1,500 Descending FlightAware ADS-B
Sat 05:23:33 PM 49.0152 2.9673 239° Southwest 196 226 4,200 -750 Descending FlightAware ADS-B
Sat 05:23:36 PM 49.0139 2.9631 244° Southwest 194 223 4,200 -857 Level FlightAware ADS-B
Sat 05:23:40 PM 49.0128 2.9583 251° West 192 221 4,100 -857 Descending FlightAware ADS-B
Sat 05:23:43 PM 49.0121 2.9545 254° West 188 216 4,100  Level FlightAware ADS-B
Sat 05:23:46 PM 49.0116 2.9498 261° West 187 215 4,100 -857 Level FlightAware ADS-B
Sat 05:23:50 PM 49.0114 2.9445 267° West 185 213 4,000 -750 Descending FlightAware ADS-B
Sat 05:23:54 PM 49.0113 2.9401 268° West 183 211 4,000  Level FlightAware ADS-B
Sat 05:24:09 PM 49.0116 2.9208 271° West 181 208 4,000  Level FlightAware ADS-B
Sat 05:24:14 PM 49.0115 2.9139 269° West 180 207 4,000  Level FlightAware ADS-B
Sat 05:24:25 PM 49.0110 2.9012 267° West 175 201 4,000 -286 Level FlightAware ADS-B
Sat 05:24:35 PM 49.0101 2.8887 264° West 172 198 3,900 -231 Descending FlightAware ADS-B
Sat 05:24:51 PM 49.0088 2.8716 263° West 169 194 3,900 -462 Level FlightAware ADS-B
Sat 05:25:01 PM 49.0080 2.8578 265° West 174 200 3,700 -1,200 Descending FlightAware ADS-B
Sat 05:25:16 PM 49.0069 2.8393 265° West 176 203 3,400 -1,091 Descending FlightAware ADS-B
Sat 05:25:23 PM 49.0065 2.8307 266° West 174 200 3,300 -1,043 Descending FlightAware ADS-B
Sat 05:25:39 PM 49.0058 2.8116 267° West 168 193 3,000 -900 Descending FlightAware ADS-B
Sat 05:25:43 PM 49.0058 2.8074 270° West 165 190 3,000  Level FlightAware ADS-B
Sat 05:25:46 PM 49.0060 2.8034 274° West 161 185 3,000 -1,000 Level FlightAware ADS-B
Sat 05:25:49 PM 49.0063 2.8000 278° West 158 182 2,900 -750 Descending FlightAware ADS-B
Sat 05:25:54 PM 49.0067 2.7952 277° West 157 181 2,900 -750 Level FlightAware ADS-B
Sat 05:25:57 PM 49.0069 2.7909 274° West 156 180 2,800 -1,412 Descending FlightAware ADS-B
Sat 05:26:11 PM 49.0068 2.7760 269° West 153 176 2,500 -1,143 Descending FlightAware ADS-B
Sat 05:26:18 PM 49.0068 2.7689 270° West 151 174 2,400 -800 Descending FlightAware ADS-B
Sat 05:26:26 PM 49.0066 2.7601 268° West 148 170 2,300 -750 Descending FlightAware ADS-B
Sat 05:26:42 PM 49.0058 2.7441 266° West 145 167 2,100 -727 Descending FlightAware ADS-B
Sat 05:26:59 PM 49.0051 2.7272 266° West 144 166 1,900 -909 Descending FlightAware ADS-B
Sat 05:27:15 PM 49.0042 2.7108 265° West 144 166 1,600 -800 Descending FlightAware ADS-B
Sat 05:27:29 PM 49.0034 2.6968 265° West 143 165 1,500 -500 Descending FlightAware ADS-B
Sat 05:27:39 PM 49.0030 2.6862 267° West 141 162 1,400 -720 Descending FlightAware ADS-B
Sat 05:27:54 PM 49.0022 2.6717 265° West 138 159 1,200 -621 Descending FlightAware ADS-B
Sat 05:28:08 PM 49.0015 2.6582 265° West 140 161 1,100 -632 Descending FlightAware ADS-B
Sat 05:28:13 PM 49.0014 2.6549 267° West 141 162 1,000 -1,200 Descending FlightAware ADS-B
Sat 05:28:28 PM 49.0003 2.6382 264° West 143 165 700 -1,000 Descending FlightAware ADS-B
Sat 05:28:37 PM 48.9998 2.6294 265° West 140 161 600 -545 Descending FlightAware ADS-B
Sat 05:28:50 PM 48.9991 2.6167 265° West 137 158 500 -621 Descending FlightAware ADS-B
Sat 05:29:06 PM 48.9983 2.6017 265° West 137 158 300 -750 Descending FlightAware ADS-B
Sat 05:34:00 PM 47.6003 -1.7270 62° Northeast  Level Estimated
Sat 05:39:00 PM 47.5937 -1.8050 62° Northeast  Level Estimated
Sat 05:40:00 PM 47.6589 -1.6202 62° Northeast  Level Estimated
Sat 05:41:00 PM 47.7239 -1.4349 62° Northeast  Level Estimated
Sat 05:42:00 PM 47.7885 -1.2492 63° Northeast  Level Estimated

Login

Don't have an account? Register now (free) for customized features, flight alerts, and more!